<?xml version="1.0" encoding="UTF-8" ?>
<gpx version="1.1" xmlns:xsi="http://www.w3.org/2001/XMLSchema-instance" 
    xmlns="http://www.topografix.com/GPX/1/1" 
    xsi:schemaLocation="http://www.topografix.com/GPX/1/1 http://www.topografix.com/GPX/1/1/gpx.xsd" 
    creator="Openrunner - https://www.openrunner.com" >	<trk>
						<name>11693614-Entre Seille et Saône</name>
						<trkseg>
					<trkpt lat="46.629990" lon="5.226310">
						<ele>181</ele>
						<time>2021-03-25T14:37:06Z</time>
					</trkpt>
					<trkpt lat="46.629950" lon="5.226020">
						<ele>180</ele>
						<time>2021-03-25T14:37:10Z</time>
					</trkpt>
					<trkpt lat="46.629710" lon="5.225330">
						<ele>181</ele>
						<time>2021-03-25T14:37:19Z</time>
					</trkpt>
					<trkpt lat="46.629650" lon="5.225140">
						<ele>181</ele>
						<time>2021-03-25T14:37:22Z</time>
					</trkpt>
					<trkpt lat="46.629310" lon="5.223210">
						<ele>186</ele>
						<time>2021-03-25T14:37:46Z</time>
					</trkpt>
					<trkpt lat="46.629240" lon="5.222490">
						<ele>186</ele>
						<time>2021-03-25T14:37:55Z</time>
					</trkpt>
					<trkpt lat="46.629250" lon="5.221890">
						<ele>185</ele>
						<time>2021-03-25T14:38:02Z</time>
					</trkpt>
					<trkpt lat="46.629210" lon="5.221000">
						<ele>184</ele>
						<time>2021-03-25T14:38:13Z</time>
					</trkpt>
					<trkpt lat="46.629240" lon="5.220800">
						<ele>183</ele>
						<time>2021-03-25T14:38:16Z</time>
					</trkpt>
					<trkpt lat="46.629340" lon="5.220500">
						<ele>182</ele>
						<time>2021-03-25T14:38:20Z</time>
					</trkpt>
					<trkpt lat="46.629440" lon="5.220170">
						<ele>180</ele>
						<time>2021-03-25T14:38:24Z</time>
					</trkpt>
					<trkpt lat="46.629440" lon="5.219960">
						<ele>179</ele>
						<time>2021-03-25T14:38:27Z</time>
					</trkpt>
					<trkpt lat="46.629460" lon="5.219960">
						<ele>179</ele>
						<time>2021-03-25T14:38:27Z</time>
					</trkpt>
					<trkpt lat="46.629480" lon="5.219940">
						<ele>179</ele>
						<time>2021-03-25T14:38:27Z</time>
					</trkpt>
					<trkpt lat="46.629490" lon="5.219940">
						<ele>179</ele>
						<time>2021-03-25T14:38:28Z</time>
					</trkpt>
					<trkpt lat="46.629510" lon="5.219910">
						<ele>179</ele>
						<time>2021-03-25T14:38:28Z</time>
					</trkpt>
					<trkpt lat="46.629540" lon="5.219830">
						<ele>179</ele>
						<time>2021-03-25T14:38:29Z</time>
					</trkpt>
					<trkpt lat="46.629550" lon="5.219780">
						<ele>179</ele>
						<time>2021-03-25T14:38:30Z</time>
					</trkpt>
					<trkpt lat="46.629540" lon="5.219750">
						<ele>179</ele>
						<time>2021-03-25T14:38:30Z</time>
					</trkpt>
					<trkpt lat="46.629580" lon="5.219670">
						<ele>178</ele>
						<time>2021-03-25T14:38:31Z</time>
					</trkpt>
					<trkpt lat="46.629620" lon="5.219580">
						<ele>178</ele>
						<time>2021-03-25T14:38:33Z</time>
					</trkpt>
					<trkpt lat="46.629670" lon="5.219470">
						<ele>178</ele>
						<time>2021-03-25T14:38:34Z</time>
					</trkpt>
					<trkpt lat="46.630080" lon="5.219020">
						<ele>177</ele>
						<time>2021-03-25T14:38:44Z</time>
					</trkpt>
					<trkpt lat="46.630130" lon="5.218990">
						<ele>177</ele>
						<time>2021-03-25T14:38:44Z</time>
					</trkpt>
					<trkpt lat="46.630230" lon="5.218930">
						<ele>178</ele>
						<time>2021-03-25T14:38:46Z</time>
					</trkpt>
					<trkpt lat="46.630430" lon="5.218710">
						<ele>178</ele>
						<time>2021-03-25T14:38:51Z</time>
					</trkpt>
					<trkpt lat="46.630960" lon="5.218100">
						<ele>180</ele>
						<time>2021-03-25T14:39:03Z</time>
					</trkpt>
					<trkpt lat="46.631040" lon="5.218010">
						<ele>180</ele>
						<time>2021-03-25T14:39:05Z</time>
					</trkpt>
					<trkpt lat="46.631260" lon="5.217770">
						<ele>180</ele>
						<time>2021-03-25T14:39:10Z</time>
					</trkpt>
					<trkpt lat="46.631330" lon="5.217700">
						<ele>180</ele>
						<time>2021-03-25T14:39:11Z</time>
					</trkpt>
					<trkpt lat="46.631390" lon="5.217620">
						<ele>179</ele>
						<time>2021-03-25T14:39:13Z</time>
					</trkpt>
					<trkpt lat="46.631480" lon="5.217510">
						<ele>179</ele>
						<time>2021-03-25T14:39:15Z</time>
					</trkpt>
					<trkpt lat="46.631670" lon="5.217290">
						<ele>179</ele>
						<time>2021-03-25T14:39:19Z</time>
					</trkpt>
					<trkpt lat="46.631880" lon="5.217060">
						<ele>180</ele>
						<time>2021-03-25T14:39:24Z</time>
					</trkpt>
					<trkpt lat="46.632400" lon="5.216510">
						<ele>182</ele>
						<time>2021-03-25T14:39:35Z</time>
					</trkpt>
					<trkpt lat="46.632490" lon="5.216350">
						<ele>183</ele>
						<time>2021-03-25T14:39:38Z</time>
					</trkpt>
					<trkpt lat="46.632550" lon="5.216210">
						<ele>182</ele>
						<time>2021-03-25T14:39:40Z</time>
					</trkpt>
					<trkpt lat="46.632720" lon="5.215660">
						<ele>182</ele>
						<time>2021-03-25T14:39:47Z</time>
					</trkpt>
					<trkpt lat="46.632870" lon="5.215260">
						<ele>181</ele>
						<time>2021-03-25T14:39:53Z</time>
					</trkpt>
					<trkpt lat="46.632940" lon="5.215100">
						<ele>181</ele>
						<time>2021-03-25T14:39:55Z</time>
					</trkpt>
					<trkpt lat="46.633080" lon="5.214850">
						<ele>180</ele>
						<time>2021-03-25T14:39:59Z</time>
					</trkpt>
					<trkpt lat="46.633440" lon="5.214480">
						<ele>179</ele>
						<time>2021-03-25T14:40:07Z</time>
					</trkpt>
					<trkpt lat="46.633570" lon="5.214350">
						<ele>179</ele>
						<time>2021-03-25T14:40:09Z</time>
					</trkpt>
					<trkpt lat="46.633660" lon="5.214220">
						<ele>179</ele>
						<time>2021-03-25T14:40:12Z</time>
					</trkpt>
					<trkpt lat="46.633740" lon="5.213850">
						<ele>179</ele>
						<time>2021-03-25T14:40:16Z</time>
					</trkpt>
					<trkpt lat="46.633790" lon="5.213750">
						<ele>179</ele>
						<time>2021-03-25T14:40:18Z</time>
					</trkpt>
					<trkpt lat="46.633990" lon="5.213550">
						<ele>178</ele>
						<time>2021-03-25T14:40:22Z</time>
					</trkpt>
					<trkpt lat="46.634720" lon="5.213090">
						<ele>178</ele>
						<time>2021-03-25T14:40:36Z</time>
					</trkpt>
					<trkpt lat="46.634920" lon="5.212880">
						<ele>178</ele>
						<time>2021-03-25T14:40:41Z</time>
					</trkpt>
					<trkpt lat="46.635090" lon="5.212650">
						<ele>178</ele>
						<time>2021-03-25T14:40:45Z</time>
					</trkpt>
					<trkpt lat="46.635330" lon="5.212260">
						<ele>178</ele>
						<time>2021-03-25T14:40:51Z</time>
					</trkpt>
					<trkpt lat="46.635400" lon="5.212240">
						<ele>178</ele>
						<time>2021-03-25T14:40:53Z</time>
					</trkpt>
					<trkpt lat="46.635590" lon="5.212400">
						<ele>179</ele>
						<time>2021-03-25T14:40:57Z</time>
					</trkpt>
					<trkpt lat="46.635670" lon="5.212460">
						<ele>179</ele>
						<time>2021-03-25T14:40:58Z</time>
					</trkpt>
					<trkpt lat="46.636000" lon="5.212050">
						<ele>180</ele>
						<time>2021-03-25T14:41:06Z</time>
					</trkpt>
					<trkpt lat="46.636550" lon="5.210920">
						<ele>181</ele>
						<time>2021-03-25T14:41:23Z</time>
					</trkpt>
					<trkpt lat="46.636740" lon="5.210480">
						<ele>181</ele>
						<time>2021-03-25T14:41:29Z</time>
					</trkpt>
					<trkpt lat="46.637000" lon="5.209710">
						<ele>180</ele>
						<time>2021-03-25T14:41:40Z</time>
					</trkpt>
					<trkpt lat="46.637280" lon="5.209000">
						<ele>179</ele>
						<time>2021-03-25T14:41:50Z</time>
					</trkpt>
					<trkpt lat="46.637590" lon="5.208100">
						<ele>179</ele>
						<time>2021-03-25T14:42:02Z</time>
					</trkpt>
					<trkpt lat="46.637640" lon="5.208130">
						<ele>179</ele>
						<time>2021-03-25T14:42:03Z</time>
					</trkpt>
					<trkpt lat="46.637670" lon="5.208100">
						<ele>179</ele>
						<time>2021-03-25T14:42:04Z</time>
					</trkpt>
					<trkpt lat="46.637850" lon="5.207710">
						<ele>180</ele>
						<time>2021-03-25T14:42:09Z</time>
					</trkpt>
					<trkpt lat="46.638150" lon="5.206910">
						<ele>179</ele>
						<time>2021-03-25T14:42:20Z</time>
					</trkpt>
					<trkpt lat="46.638180" lon="5.206780">
						<ele>179</ele>
						<time>2021-03-25T14:42:22Z</time>
					</trkpt>
					<trkpt lat="46.638330" lon="5.206390">
						<ele>179</ele>
						<time>2021-03-25T14:42:28Z</time>
					</trkpt>
					<trkpt lat="46.638440" lon="5.206120">
						<ele>179</ele>
						<time>2021-03-25T14:42:31Z</time>
					</trkpt>
					<trkpt lat="46.638680" lon="5.205650">
						<ele>179</ele>
						<time>2021-03-25T14:42:39Z</time>
					</trkpt>
					<trkpt lat="46.638730" lon="5.205570">
						<ele>179</ele>
						<time>2021-03-25T14:42:40Z</time>
					</trkpt>
					<trkpt lat="46.639580" lon="5.204210">
						<ele>179</ele>
						<time>2021-03-25T14:43:02Z</time>
					</trkpt>
					<trkpt lat="46.640250" lon="5.203190">
						<ele>180</ele>
						<time>2021-03-25T14:43:20Z</time>
					</trkpt>
					<trkpt lat="46.640370" lon="5.202980">
						<ele>180</ele>
						<time>2021-03-25T14:43:23Z</time>
					</trkpt>
					<trkpt lat="46.640330" lon="5.202910">
						<ele>180</ele>
						<time>2021-03-25T14:43:24Z</time>
					</trkpt>
					<trkpt lat="46.640500" lon="5.202630">
						<ele>180</ele>
						<time>2021-03-25T14:43:29Z</time>
					</trkpt>
					<trkpt lat="46.640780" lon="5.202060">
						<ele>179</ele>
						<time>2021-03-25T14:43:37Z</time>
					</trkpt>
					<trkpt lat="46.641130" lon="5.201120">
						<ele>179</ele>
						<time>2021-03-25T14:43:50Z</time>
					</trkpt>
					<trkpt lat="46.641220" lon="5.200770">
						<ele>179</ele>
						<time>2021-03-25T14:43:55Z</time>
					</trkpt>
					<trkpt lat="46.641870" lon="5.198210">
						<ele>180</ele>
						<time>2021-03-25T14:44:28Z</time>
					</trkpt>
					<trkpt lat="46.642260" lon="5.196410">
						<ele>180</ele>
						<time>2021-03-25T14:44:51Z</time>
					</trkpt>
					<trkpt lat="46.642720" lon="5.194210">
						<ele>180</ele>
						<time>2021-03-25T14:45:19Z</time>
					</trkpt>
					<trkpt lat="46.642860" lon="5.193290">
						<ele>181</ele>
						<time>2021-03-25T14:45:31Z</time>
					</trkpt>
					<trkpt lat="46.643370" lon="5.189000">
						<ele>181</ele>
						<time>2021-03-25T14:46:24Z</time>
					</trkpt>
					<trkpt lat="46.643630" lon="5.186420">
						<ele>184</ele>
						<time>2021-03-25T14:46:56Z</time>
					</trkpt>
					<trkpt lat="46.643650" lon="5.186330">
						<ele>185</ele>
						<time>2021-03-25T14:46:57Z</time>
					</trkpt>
					<trkpt lat="46.643690" lon="5.185740">
						<ele>185</ele>
						<time>2021-03-25T14:47:04Z</time>
					</trkpt>
					<trkpt lat="46.643700" lon="5.185090">
						<ele>186</ele>
						<time>2021-03-25T14:47:12Z</time>
					</trkpt>
					<trkpt lat="46.643760" lon="5.184180">
						<ele>187</ele>
						<time>2021-03-25T14:47:23Z</time>
					</trkpt>
					<trkpt lat="46.643820" lon="5.182330">
						<ele>186</ele>
						<time>2021-03-25T14:47:46Z</time>
					</trkpt>
					<trkpt lat="46.643860" lon="5.179630">
						<ele>187</ele>
						<time>2021-03-25T14:48:19Z</time>
					</trkpt>
					<trkpt lat="46.643850" lon="5.179580">
						<ele>187</ele>
						<time>2021-03-25T14:48:20Z</time>
					</trkpt>
					<trkpt lat="46.643870" lon="5.179510">
						<ele>187</ele>
						<time>2021-03-25T14:48:20Z</time>
					</trkpt>
					<trkpt lat="46.643880" lon="5.178810">
						<ele>187</ele>
						<time>2021-03-25T14:48:29Z</time>
					</trkpt>
					<trkpt lat="46.643860" lon="5.175050">
						<ele>188</ele>
						<time>2021-03-25T14:49:15Z</time>
					</trkpt>
					<trkpt lat="46.643720" lon="5.175110">
						<ele>186</ele>
						<time>2021-03-25T14:49:18Z</time>
					</trkpt>
					<trkpt lat="46.642980" lon="5.175050">
						<ele>181</ele>
						<time>2021-03-25T14:49:31Z</time>
					</trkpt>
					<trkpt lat="46.643150" lon="5.174030">
						<ele>181</ele>
						<time>2021-03-25T14:49:44Z</time>
					</trkpt>
					<trkpt lat="46.643750" lon="5.171080">
						<ele>179</ele>
						<time>2021-03-25T14:50:21Z</time>
					</trkpt>
					<trkpt lat="46.643590" lon="5.170890">
						<ele>178</ele>
						<time>2021-03-25T14:50:25Z</time>
					</trkpt>
					<trkpt lat="46.643230" lon="5.170470">
						<ele>177</ele>
						<time>2021-03-25T14:50:33Z</time>
					</trkpt>
					<trkpt lat="46.643110" lon="5.170270">
						<ele>176</ele>
						<time>2021-03-25T14:50:36Z</time>
					</trkpt>
					<trkpt lat="46.642810" lon="5.169520">
						<ele>176</ele>
						<time>2021-03-25T14:50:47Z</time>
					</trkpt>
					<trkpt lat="46.642700" lon="5.169130">
						<ele>176</ele>
						<time>2021-03-25T14:50:52Z</time>
					</trkpt>
					<trkpt lat="46.642520" lon="5.168200">
						<ele>176</ele>
						<time>2021-03-25T14:51:04Z</time>
					</trkpt>
					<trkpt lat="46.642400" lon="5.167750">
						<ele>176</ele>
						<time>2021-03-25T14:51:10Z</time>
					</trkpt>
					<trkpt lat="46.642340" lon="5.167570">
						<ele>175</ele>
						<time>2021-03-25T14:51:12Z</time>
					</trkpt>
					<trkpt lat="46.642030" lon="5.166920">
						<ele>175</ele>
						<time>2021-03-25T14:51:22Z</time>
					</trkpt>
					<trkpt lat="46.641970" lon="5.166700">
						<ele>175</ele>
						<time>2021-03-25T14:51:25Z</time>
					</trkpt>
					<trkpt lat="46.641880" lon="5.166090">
						<ele>176</ele>
						<time>2021-03-25T14:51:32Z</time>
					</trkpt>
					<trkpt lat="46.641860" lon="5.165960">
						<ele>176</ele>
						<time>2021-03-25T14:51:34Z</time>
					</trkpt>
					<trkpt lat="46.641810" lon="5.165850">
						<ele>177</ele>
						<time>2021-03-25T14:51:36Z</time>
					</trkpt>
					<trkpt lat="46.641450" lon="5.165220">
						<ele>176</ele>
						<time>2021-03-25T14:51:46Z</time>
					</trkpt>
					<trkpt lat="46.641410" lon="5.165060">
						<ele>176</ele>
						<time>2021-03-25T14:51:48Z</time>
					</trkpt>
					<trkpt lat="46.641400" lon="5.164860">
						<ele>176</ele>
						<time>2021-03-25T14:51:50Z</time>
					</trkpt>
					<trkpt lat="46.641350" lon="5.164700">
						<ele>176</ele>
						<time>2021-03-25T14:51:52Z</time>
					</trkpt>
					<trkpt lat="46.641240" lon="5.164510">
						<ele>176</ele>
						<time>2021-03-25T14:51:55Z</time>
					</trkpt>
					<trkpt lat="46.641130" lon="5.164430">
						<ele>176</ele>
						<time>2021-03-25T14:51:58Z</time>
					</trkpt>
					<trkpt lat="46.640670" lon="5.164380">
						<ele>176</ele>
						<time>2021-03-25T14:52:06Z</time>
					</trkpt>
					<trkpt lat="46.640460" lon="5.164130">
						<ele>176</ele>
						<time>2021-03-25T14:52:11Z</time>
					</trkpt>
					<trkpt lat="46.640330" lon="5.163650">
						<ele>177</ele>
						<time>2021-03-25T14:52:17Z</time>
					</trkpt>
					<trkpt lat="46.640270" lon="5.163170">
						<ele>177</ele>
						<time>2021-03-25T14:52:23Z</time>
					</trkpt>
					<trkpt lat="46.640180" lon="5.163060">
						<ele>177</ele>
						<time>2021-03-25T14:52:25Z</time>
					</trkpt>
					<trkpt lat="46.639970" lon="5.163030">
						<ele>177</ele>
						<time>2021-03-25T14:52:29Z</time>
					</trkpt>
					<trkpt lat="46.639330" lon="5.161930">
						<ele>174</ele>
						<time>2021-03-25T14:52:46Z</time>
					</trkpt>
					<trkpt lat="46.639060" lon="5.161410">
						<ele>174</ele>
						<time>2021-03-25T14:52:54Z</time>
					</trkpt>
					<trkpt lat="46.638890" lon="5.161160">
						<ele>174</ele>
						<time>2021-03-25T14:52:59Z</time>
					</trkpt>
					<trkpt lat="46.636690" lon="5.158820">
						<ele>174</ele>
						<time>2021-03-25T14:53:47Z</time>
					</trkpt>
					<trkpt lat="46.636600" lon="5.158690">
						<ele>174</ele>
						<time>2021-03-25T14:53:49Z</time>
					</trkpt>
					<trkpt lat="46.636420" lon="5.155200">
						<ele>175</ele>
						<time>2021-03-25T14:54:32Z</time>
					</trkpt>
					<trkpt lat="46.636290" lon="5.153210">
						<ele>173</ele>
						<time>2021-03-25T14:54:56Z</time>
					</trkpt>
					<trkpt lat="46.636310" lon="5.153070">
						<ele>173</ele>
						<time>2021-03-25T14:54:58Z</time>
					</trkpt>
					<trkpt lat="46.636500" lon="5.152530">
						<ele>174</ele>
						<time>2021-03-25T14:55:06Z</time>
					</trkpt>
					<trkpt lat="46.636580" lon="5.152170">
						<ele>174</ele>
						<time>2021-03-25T14:55:10Z</time>
					</trkpt>
					<trkpt lat="46.636630" lon="5.151830">
						<ele>175</ele>
						<time>2021-03-25T14:55:14Z</time>
					</trkpt>
					<trkpt lat="46.636630" lon="5.151650">
						<ele>175</ele>
						<time>2021-03-25T14:55:17Z</time>
					</trkpt>
					<trkpt lat="46.636660" lon="5.151440">
						<ele>175</ele>
						<time>2021-03-25T14:55:19Z</time>
					</trkpt>
					<trkpt lat="46.636590" lon="5.150990">
						<ele>174</ele>
						<time>2021-03-25T14:55:25Z</time>
					</trkpt>
					<trkpt lat="46.636510" lon="5.150800">
						<ele>174</ele>
						<time>2021-03-25T14:55:28Z</time>
					</trkpt>
					<trkpt lat="46.636430" lon="5.150320">
						<ele>174</ele>
						<time>2021-03-25T14:55:34Z</time>
					</trkpt>
					<trkpt lat="46.636370" lon="5.149800">
						<ele>173</ele>
						<time>2021-03-25T14:55:40Z</time>
					</trkpt>
					<trkpt lat="46.636370" lon="5.149480">
						<ele>172</ele>
						<time>2021-03-25T14:55:44Z</time>
					</trkpt>
					<trkpt lat="46.636310" lon="5.149020">
						<ele>172</ele>
						<time>2021-03-25T14:55:50Z</time>
					</trkpt>
					<trkpt lat="46.636250" lon="5.148800">
						<ele>172</ele>
						<time>2021-03-25T14:55:53Z</time>
					</trkpt>
					<trkpt lat="46.636160" lon="5.148540">
						<ele>171</ele>
						<time>2021-03-25T14:55:56Z</time>
					</trkpt>
					<trkpt lat="46.636010" lon="5.148250">
						<ele>171</ele>
						<time>2021-03-25T14:56:01Z</time>
					</trkpt>
					<trkpt lat="46.635880" lon="5.148050">
						<ele>172</ele>
						<time>2021-03-25T14:56:04Z</time>
					</trkpt>
					<trkpt lat="46.635620" lon="5.147520">
						<ele>175</ele>
						<time>2021-03-25T14:56:12Z</time>
					</trkpt>
					<trkpt lat="46.635570" lon="5.147380">
						<ele>175</ele>
						<time>2021-03-25T14:56:14Z</time>
					</trkpt>
					<trkpt lat="46.635510" lon="5.147220">
						<ele>175</ele>
						<time>2021-03-25T14:56:16Z</time>
					</trkpt>
					<trkpt lat="46.635490" lon="5.147040">
						<ele>175</ele>
						<time>2021-03-25T14:56:18Z</time>
					</trkpt>
					<trkpt lat="46.635410" lon="5.147010">
						<ele>175</ele>
						<time>2021-03-25T14:56:20Z</time>
					</trkpt>
					<trkpt lat="46.635320" lon="5.146870">
						<ele>175</ele>
						<time>2021-03-25T14:56:22Z</time>
					</trkpt>
					<trkpt lat="46.635270" lon="5.146710">
						<ele>175</ele>
						<time>2021-03-25T14:56:24Z</time>
					</trkpt>
					<trkpt lat="46.635260" lon="5.146550">
						<ele>175</ele>
						<time>2021-03-25T14:56:26Z</time>
					</trkpt>
					<trkpt lat="46.635270" lon="5.146390">
						<ele>175</ele>
						<time>2021-03-25T14:56:28Z</time>
					</trkpt>
					<trkpt lat="46.635400" lon="5.146060">
						<ele>175</ele>
						<time>2021-03-25T14:56:33Z</time>
					</trkpt>
					<trkpt lat="46.635470" lon="5.145820">
						<ele>176</ele>
						<time>2021-03-25T14:56:36Z</time>
					</trkpt>
					<trkpt lat="46.635550" lon="5.145460">
						<ele>175</ele>
						<time>2021-03-25T14:56:41Z</time>
					</trkpt>
					<trkpt lat="46.635590" lon="5.145190">
						<ele>175</ele>
						<time>2021-03-25T14:56:44Z</time>
					</trkpt>
					<trkpt lat="46.635580" lon="5.144840">
						<ele>175</ele>
						<time>2021-03-25T14:56:48Z</time>
					</trkpt>
					<trkpt lat="46.635460" lon="5.144460">
						<ele>175</ele>
						<time>2021-03-25T14:56:53Z</time>
					</trkpt>
					<trkpt lat="46.635200" lon="5.144070">
						<ele>175</ele>
						<time>2021-03-25T14:57:00Z</time>
					</trkpt>
					<trkpt lat="46.635120" lon="5.143910">
						<ele>175</ele>
						<time>2021-03-25T14:57:02Z</time>
					</trkpt>
					<trkpt lat="46.635000" lon="5.143810">
						<ele>175</ele>
						<time>2021-03-25T14:57:05Z</time>
					</trkpt>
					<trkpt lat="46.634630" lon="5.143610">
						<ele>176</ele>
						<time>2021-03-25T14:57:12Z</time>
					</trkpt>
					<trkpt lat="46.634480" lon="5.143490">
						<ele>176</ele>
						<time>2021-03-25T14:57:15Z</time>
					</trkpt>
					<trkpt lat="46.634370" lon="5.143350">
						<ele>176</ele>
						<time>2021-03-25T14:57:18Z</time>
					</trkpt>
					<trkpt lat="46.634300" lon="5.143210">
						<ele>176</ele>
						<time>2021-03-25T14:57:20Z</time>
					</trkpt>
					<trkpt lat="46.634270" lon="5.143090">
						<ele>176</ele>
						<time>2021-03-25T14:57:21Z</time>
					</trkpt>
					<trkpt lat="46.634250" lon="5.142900">
						<ele>175</ele>
						<time>2021-03-25T14:57:24Z</time>
					</trkpt>
					<trkpt lat="46.634210" lon="5.142250">
						<ele>173</ele>
						<time>2021-03-25T14:57:32Z</time>
					</trkpt>
					<trkpt lat="46.634190" lon="5.142040">
						<ele>173</ele>
						<time>2021-03-25T14:57:34Z</time>
					</trkpt>
					<trkpt lat="46.634210" lon="5.141800">
						<ele>172</ele>
						<time>2021-03-25T14:57:37Z</time>
					</trkpt>
					<trkpt lat="46.634260" lon="5.141680">
						<ele>172</ele>
						<time>2021-03-25T14:57:39Z</time>
					</trkpt>
					<trkpt lat="46.634330" lon="5.141580">
						<ele>172</ele>
						<time>2021-03-25T14:57:41Z</time>
					</trkpt>
					<trkpt lat="46.634420" lon="5.141380">
						<ele>172</ele>
						<time>2021-03-25T14:57:44Z</time>
					</trkpt>
					<trkpt lat="46.634750" lon="5.141160">
						<ele>172</ele>
						<time>2021-03-25T14:57:50Z</time>
					</trkpt>
					<trkpt lat="46.636790" lon="5.139880">
						<ele>174</ele>
						<time>2021-03-25T14:58:30Z</time>
					</trkpt>
					<trkpt lat="46.637530" lon="5.139380">
						<ele>173</ele>
						<time>2021-03-25T14:58:44Z</time>
					</trkpt>
					<trkpt lat="46.638990" lon="5.138140">
						<ele>176</ele>
						<time>2021-03-25T14:59:14Z</time>
					</trkpt>
					<trkpt lat="46.639490" lon="5.137560">
						<ele>180</ele>
						<time>2021-03-25T14:59:25Z</time>
					</trkpt>
					<trkpt lat="46.639590" lon="5.137240">
						<ele>181</ele>
						<time>2021-03-25T14:59:30Z</time>
					</trkpt>
					<trkpt lat="46.639720" lon="5.137060">
						<ele>182</ele>
						<time>2021-03-25T14:59:33Z</time>
					</trkpt>
					<trkpt lat="46.639490" lon="5.136730">
						<ele>182</ele>
						<time>2021-03-25T14:59:39Z</time>
					</trkpt>
					<trkpt lat="46.637780" lon="5.135260">
						<ele>180</ele>
						<time>2021-03-25T15:00:14Z</time>
					</trkpt>
					<trkpt lat="46.636200" lon="5.134160">
						<ele>178</ele>
						<time>2021-03-25T15:00:45Z</time>
					</trkpt>
					<trkpt lat="46.635930" lon="5.133910">
						<ele>178</ele>
						<time>2021-03-25T15:00:51Z</time>
					</trkpt>
					<trkpt lat="46.635290" lon="5.132920">
						<ele>179</ele>
						<time>2021-03-25T15:01:08Z</time>
					</trkpt>
					<trkpt lat="46.633450" lon="5.130190">
						<ele>174</ele>
						<time>2021-03-25T15:01:54Z</time>
					</trkpt>
					<trkpt lat="46.632980" lon="5.129670">
						<ele>178</ele>
						<time>2021-03-25T15:02:05Z</time>
					</trkpt>
					<trkpt lat="46.631970" lon="5.129000">
						<ele>184</ele>
						<time>2021-03-25T15:02:25Z</time>
					</trkpt>
					<trkpt lat="46.631420" lon="5.128600">
						<ele>184</ele>
						<time>2021-03-25T15:02:35Z</time>
					</trkpt>
					<trkpt lat="46.631310" lon="5.128490">
						<ele>184</ele>
						<time>2021-03-25T15:02:38Z</time>
					</trkpt>
					<trkpt lat="46.631210" lon="5.128310">
						<ele>185</ele>
						<time>2021-03-25T15:02:41Z</time>
					</trkpt>
					<trkpt lat="46.631110" lon="5.128000">
						<ele>186</ele>
						<time>2021-03-25T15:02:45Z</time>
					</trkpt>
					<trkpt lat="46.629680" lon="5.122860">
						<ele>199</ele>
						<time>2021-03-25T15:03:53Z</time>
					</trkpt>
					<trkpt lat="46.629580" lon="5.122350">
						<ele>202</ele>
						<time>2021-03-25T15:03:59Z</time>
					</trkpt>
					<trkpt lat="46.628160" lon="5.115760">
						<ele>197</ele>
						<time>2021-03-25T15:05:23Z</time>
					</trkpt>
					<trkpt lat="46.628050" lon="5.115380">
						<ele>198</ele>
						<time>2021-03-25T15:05:28Z</time>
					</trkpt>
					<trkpt lat="46.627960" lon="5.115230">
						<ele>198</ele>
						<time>2021-03-25T15:05:31Z</time>
					</trkpt>
					<trkpt lat="46.626640" lon="5.113750">
						<ele>197</ele>
						<time>2021-03-25T15:06:01Z</time>
					</trkpt>
					<trkpt lat="46.626430" lon="5.113440">
						<ele>197</ele>
						<time>2021-03-25T15:06:06Z</time>
					</trkpt>
					<trkpt lat="46.626310" lon="5.113210">
						<ele>196</ele>
						<time>2021-03-25T15:06:09Z</time>
					</trkpt>
					<trkpt lat="46.623860" lon="5.108000">
						<ele>196</ele>
						<time>2021-03-25T15:07:27Z</time>
					</trkpt>
					<trkpt lat="46.623660" lon="5.107510">
						<ele>197</ele>
						<time>2021-03-25T15:07:34Z</time>
					</trkpt>
					<trkpt lat="46.623460" lon="5.106820">
						<ele>197</ele>
						<time>2021-03-25T15:07:43Z</time>
					</trkpt>
					<trkpt lat="46.623400" lon="5.106850">
						<ele>197</ele>
						<time>2021-03-25T15:07:44Z</time>
					</trkpt>
					<trkpt lat="46.623460" lon="5.106820">
						<ele>197</ele>
						<time>2021-03-25T15:07:45Z</time>
					</trkpt>
					<trkpt lat="46.622780" lon="5.104470">
						<ele>189</ele>
						<time>2021-03-25T15:08:16Z</time>
					</trkpt>
					<trkpt lat="46.622330" lon="5.102840">
						<ele>191</ele>
						<time>2021-03-25T15:08:38Z</time>
					</trkpt>
					<trkpt lat="46.622070" lon="5.101770">
						<ele>196</ele>
						<time>2021-03-25T15:08:51Z</time>
					</trkpt>
					<trkpt lat="46.622040" lon="5.101210">
						<ele>198</ele>
						<time>2021-03-25T15:08:58Z</time>
					</trkpt>
					<trkpt lat="46.622070" lon="5.101000">
						<ele>198</ele>
						<time>2021-03-25T15:09:01Z</time>
					</trkpt>
					<trkpt lat="46.622140" lon="5.100760">
						<ele>198</ele>
						<time>2021-03-25T15:09:04Z</time>
					</trkpt>
					<trkpt lat="46.622240" lon="5.100500">
						<ele>198</ele>
						<time>2021-03-25T15:09:08Z</time>
					</trkpt>
					<trkpt lat="46.623550" lon="5.097820">
						<ele>199</ele>
						<time>2021-03-25T15:09:48Z</time>
					</trkpt>
					<trkpt lat="46.623940" lon="5.096400">
						<ele>199</ele>
						<time>2021-03-25T15:10:07Z</time>
					</trkpt>
					<trkpt lat="46.623980" lon="5.096180">
						<ele>199</ele>
						<time>2021-03-25T15:10:09Z</time>
					</trkpt>
					<trkpt lat="46.624020" lon="5.095980">
						<ele>199</ele>
						<time>2021-03-25T15:10:12Z</time>
					</trkpt>
					<trkpt lat="46.624030" lon="5.095500">
						<ele>199</ele>
						<time>2021-03-25T15:10:18Z</time>
					</trkpt>
					<trkpt lat="46.623990" lon="5.095130">
						<ele>199</ele>
						<time>2021-03-25T15:10:22Z</time>
					</trkpt>
					<trkpt lat="46.624040" lon="5.095100">
						<ele>199</ele>
						<time>2021-03-25T15:10:23Z</time>
					</trkpt>
					<trkpt lat="46.624170" lon="5.094980">
						<ele>199</ele>
						<time>2021-03-25T15:10:26Z</time>
					</trkpt>
					<trkpt lat="46.625300" lon="5.093400">
						<ele>198</ele>
						<time>2021-03-25T15:10:54Z</time>
					</trkpt>
					<trkpt lat="46.625540" lon="5.093140">
						<ele>197</ele>
						<time>2021-03-25T15:10:59Z</time>
					</trkpt>
					<trkpt lat="46.625650" lon="5.093080">
						<ele>197</ele>
						<time>2021-03-25T15:11:01Z</time>
					</trkpt>
					<trkpt lat="46.625650" lon="5.092930">
						<ele>197</ele>
						<time>2021-03-25T15:11:03Z</time>
					</trkpt>
					<trkpt lat="46.625650" lon="5.092800">
						<ele>197</ele>
						<time>2021-03-25T15:11:05Z</time>
					</trkpt>
					<trkpt lat="46.625620" lon="5.092670">
						<ele>197</ele>
						<time>2021-03-25T15:11:07Z</time>
					</trkpt>
					<trkpt lat="46.625570" lon="5.092560">
						<ele>197</ele>
						<time>2021-03-25T15:11:08Z</time>
					</trkpt>
					<trkpt lat="46.625430" lon="5.092310">
						<ele>197</ele>
						<time>2021-03-25T15:11:12Z</time>
					</trkpt>
					<trkpt lat="46.625410" lon="5.092230">
						<ele>198</ele>
						<time>2021-03-25T15:11:13Z</time>
					</trkpt>
					<trkpt lat="46.625400" lon="5.092170">
						<ele>198</ele>
						<time>2021-03-25T15:11:14Z</time>
					</trkpt>
					<trkpt lat="46.625370" lon="5.091990">
						<ele>198</ele>
						<time>2021-03-25T15:11:16Z</time>
					</trkpt>
					<trkpt lat="46.625370" lon="5.091790">
						<ele>198</ele>
						<time>2021-03-25T15:11:19Z</time>
					</trkpt>
					<trkpt lat="46.625480" lon="5.089620">
						<ele>200</ele>
						<time>2021-03-25T15:11:45Z</time>
					</trkpt>
					<trkpt lat="46.625540" lon="5.089320">
						<ele>200</ele>
						<time>2021-03-25T15:11:49Z</time>
					</trkpt>
					<trkpt lat="46.625580" lon="5.089170">
						<ele>200</ele>
						<time>2021-03-25T15:11:51Z</time>
					</trkpt>
					<trkpt lat="46.625990" lon="5.087910">
						<ele>199</ele>
						<time>2021-03-25T15:12:08Z</time>
					</trkpt>
					<trkpt lat="46.626080" lon="5.087740">
						<ele>199</ele>
						<time>2021-03-25T15:12:11Z</time>
					</trkpt>
					<trkpt lat="46.626120" lon="5.087660">
						<ele>199</ele>
						<time>2021-03-25T15:12:12Z</time>
					</trkpt>
					<trkpt lat="46.626320" lon="5.087420">
						<ele>199</ele>
						<time>2021-03-25T15:12:16Z</time>
					</trkpt>
					<trkpt lat="46.626380" lon="5.087290">
						<ele>199</ele>
						<time>2021-03-25T15:12:18Z</time>
					</trkpt>
					<trkpt lat="46.626410" lon="5.087120">
						<ele>199</ele>
						<time>2021-03-25T15:12:20Z</time>
					</trkpt>
					<trkpt lat="46.626480" lon="5.086260">
						<ele>199</ele>
						<time>2021-03-25T15:12:31Z</time>
					</trkpt>
					<trkpt lat="46.626560" lon="5.085620">
						<ele>199</ele>
						<time>2021-03-25T15:12:39Z</time>
					</trkpt>
					<trkpt lat="46.626550" lon="5.085130">
						<ele>199</ele>
						<time>2021-03-25T15:12:45Z</time>
					</trkpt>
					<trkpt lat="46.626560" lon="5.084790">
						<ele>198</ele>
						<time>2021-03-25T15:12:49Z</time>
					</trkpt>
					<trkpt lat="46.626560" lon="5.084740">
						<ele>198</ele>
						<time>2021-03-25T15:12:50Z</time>
					</trkpt>
					<trkpt lat="46.626580" lon="5.084540">
						<ele>198</ele>
						<time>2021-03-25T15:12:52Z</time>
					</trkpt>
					<trkpt lat="46.626580" lon="5.084510">
						<ele>198</ele>
						<time>2021-03-25T15:12:53Z</time>
					</trkpt>
					<trkpt lat="46.626590" lon="5.084290">
						<ele>197</ele>
						<time>2021-03-25T15:12:55Z</time>
					</trkpt>
					<trkpt lat="46.626580" lon="5.084110">
						<ele>197</ele>
						<time>2021-03-25T15:12:58Z</time>
					</trkpt>
					<trkpt lat="46.626470" lon="5.083500">
						<ele>196</ele>
						<time>2021-03-25T15:13:05Z</time>
					</trkpt>
					<trkpt lat="46.626350" lon="5.082580">
						<ele>194</ele>
						<time>2021-03-25T15:13:17Z</time>
					</trkpt>
					<trkpt lat="46.626350" lon="5.082260">
						<ele>192</ele>
						<time>2021-03-25T15:13:21Z</time>
					</trkpt>
					<trkpt lat="46.626400" lon="5.081970">
						<ele>191</ele>
						<time>2021-03-25T15:13:24Z</time>
					</trkpt>
					<trkpt lat="46.626450" lon="5.081790">
						<ele>190</ele>
						<time>2021-03-25T15:13:27Z</time>
					</trkpt>
					<trkpt lat="46.626530" lon="5.081560">
						<ele>189</ele>
						<time>2021-03-25T15:13:30Z</time>
					</trkpt>
					<trkpt lat="46.626820" lon="5.080890">
						<ele>186</ele>
						<time>2021-03-25T15:13:39Z</time>
					</trkpt>
					<trkpt lat="46.626870" lon="5.080730">
						<ele>185</ele>
						<time>2021-03-25T15:13:42Z</time>
					</trkpt>
					<trkpt lat="46.626900" lon="5.080540">
						<ele>184</ele>
						<time>2021-03-25T15:13:44Z</time>
					</trkpt>
					<trkpt lat="46.626990" lon="5.079800">
						<ele>180</ele>
						<time>2021-03-25T15:13:53Z</time>
					</trkpt>
					<trkpt lat="46.627010" lon="5.079560">
						<ele>179</ele>
						<time>2021-03-25T15:13:56Z</time>
					</trkpt>
					<trkpt lat="46.627060" lon="5.079070">
						<ele>177</ele>
						<time>2021-03-25T15:14:02Z</time>
					</trkpt>
					<trkpt lat="46.627060" lon="5.078620">
						<ele>177</ele>
						<time>2021-03-25T15:14:08Z</time>
					</trkpt>
					<trkpt lat="46.627040" lon="5.078420">
						<ele>177</ele>
						<time>2021-03-25T15:14:10Z</time>
					</trkpt>
					<trkpt lat="46.627000" lon="5.078190">
						<ele>178</ele>
						<time>2021-03-25T15:14:13Z</time>
					</trkpt>
					<trkpt lat="46.626980" lon="5.078030">
						<ele>180</ele>
						<time>2021-03-25T15:14:15Z</time>
					</trkpt>
					<trkpt lat="46.626970" lon="5.078000">
						<ele>180</ele>
						<time>2021-03-25T15:14:15Z</time>
					</trkpt>
					<trkpt lat="46.626900" lon="5.077710">
						<ele>183</ele>
						<time>2021-03-25T15:14:19Z</time>
					</trkpt>
					<trkpt lat="46.626550" lon="5.077030">
						<ele>187</ele>
						<time>2021-03-25T15:14:30Z</time>
					</trkpt>
					<trkpt lat="46.626100" lon="5.076330">
						<ele>187</ele>
						<time>2021-03-25T15:14:41Z</time>
					</trkpt>
					<trkpt lat="46.625960" lon="5.076060">
						<ele>186</ele>
						<time>2021-03-25T15:14:45Z</time>
					</trkpt>
					<trkpt lat="46.625880" lon="5.075860">
						<ele>186</ele>
						<time>2021-03-25T15:14:48Z</time>
					</trkpt>
					<trkpt lat="46.625820" lon="5.075510">
						<ele>187</ele>
						<time>2021-03-25T15:14:53Z</time>
					</trkpt>
					<trkpt lat="46.625790" lon="5.075070">
						<ele>189</ele>
						<time>2021-03-25T15:14:58Z</time>
					</trkpt>
					<trkpt lat="46.625740" lon="5.074280">
						<ele>192</ele>
						<time>2021-03-25T15:15:08Z</time>
					</trkpt>
					<trkpt lat="46.625740" lon="5.074160">
						<ele>192</ele>
						<time>2021-03-25T15:15:09Z</time>
					</trkpt>
					<trkpt lat="46.625800" lon="5.073780">
						<ele>194</ele>
						<time>2021-03-25T15:15:14Z</time>
					</trkpt>
					<trkpt lat="46.625880" lon="5.073450">
						<ele>195</ele>
						<time>2021-03-25T15:15:18Z</time>
					</trkpt>
					<trkpt lat="46.626130" lon="5.072760">
						<ele>197</ele>
						<time>2021-03-25T15:15:28Z</time>
					</trkpt>
					<trkpt lat="46.626340" lon="5.072290">
						<ele>197</ele>
						<time>2021-03-25T15:15:35Z</time>
					</trkpt>
					<trkpt lat="46.627160" lon="5.070940">
						<ele>198</ele>
						<time>2021-03-25T15:15:57Z</time>
					</trkpt>
					<trkpt lat="46.627340" lon="5.070770">
						<ele>199</ele>
						<time>2021-03-25T15:16:00Z</time>
					</trkpt>
					<trkpt lat="46.627720" lon="5.070640">
						<ele>199</ele>
						<time>2021-03-25T15:16:07Z</time>
					</trkpt>
					<trkpt lat="46.627800" lon="5.070430">
						<ele>200</ele>
						<time>2021-03-25T15:16:10Z</time>
					</trkpt>
					<trkpt lat="46.628360" lon="5.068260">
						<ele>203</ele>
						<time>2021-03-25T15:16:39Z</time>
					</trkpt>
					<trkpt lat="46.628430" lon="5.067930">
						<ele>203</ele>
						<time>2021-03-25T15:16:43Z</time>
					</trkpt>
					<trkpt lat="46.628680" lon="5.066270">
						<ele>203</ele>
						<time>2021-03-25T15:17:04Z</time>
					</trkpt>
					<trkpt lat="46.628920" lon="5.065390">
						<ele>204</ele>
						<time>2021-03-25T15:17:15Z</time>
					</trkpt>
					<trkpt lat="46.629070" lon="5.064260">
						<ele>204</ele>
						<time>2021-03-25T15:17:29Z</time>
					</trkpt>
					<trkpt lat="46.629280" lon="5.062400">
						<ele>205</ele>
						<time>2021-03-25T15:17:52Z</time>
					</trkpt>
					<trkpt lat="46.629530" lon="5.061520">
						<ele>203</ele>
						<time>2021-03-25T15:18:04Z</time>
					</trkpt>
					<trkpt lat="46.629550" lon="5.061390">
						<ele>202</ele>
						<time>2021-03-25T15:18:06Z</time>
					</trkpt>
					<trkpt lat="46.629550" lon="5.061270">
						<ele>202</ele>
						<time>2021-03-25T15:18:07Z</time>
					</trkpt>
					<trkpt lat="46.629450" lon="5.060770">
						<ele>201</ele>
						<time>2021-03-25T15:18:13Z</time>
					</trkpt>
					<trkpt lat="46.629440" lon="5.060610">
						<ele>200</ele>
						<time>2021-03-25T15:18:15Z</time>
					</trkpt>
					<trkpt lat="46.629520" lon="5.058170">
						<ele>203</ele>
						<time>2021-03-25T15:18:45Z</time>
					</trkpt>
					<trkpt lat="46.629610" lon="5.057330">
						<ele>205</ele>
						<time>2021-03-25T15:18:56Z</time>
					</trkpt>
					<trkpt lat="46.629630" lon="5.056290">
						<ele>206</ele>
						<time>2021-03-25T15:19:08Z</time>
					</trkpt>
					<trkpt lat="46.629610" lon="5.055990">
						<ele>206</ele>
						<time>2021-03-25T15:19:12Z</time>
					</trkpt>
					<trkpt lat="46.629590" lon="5.055750">
						<ele>206</ele>
						<time>2021-03-25T15:19:15Z</time>
					</trkpt>
					<trkpt lat="46.629420" lon="5.054760">
						<ele>207</ele>
						<time>2021-03-25T15:19:27Z</time>
					</trkpt>
					<trkpt lat="46.629390" lon="5.054490">
						<ele>208</ele>
						<time>2021-03-25T15:19:31Z</time>
					</trkpt>
					<trkpt lat="46.629300" lon="5.054570">
						<ele>208</ele>
						<time>2021-03-25T15:19:33Z</time>
					</trkpt>
					<trkpt lat="46.629170" lon="5.054640">
						<ele>208</ele>
						<time>2021-03-25T15:19:35Z</time>
					</trkpt>
					<trkpt lat="46.628930" lon="5.054690">
						<ele>208</ele>
						<time>2021-03-25T15:19:39Z</time>
					</trkpt>
					<trkpt lat="46.628570" lon="5.054690">
						<ele>208</ele>
						<time>2021-03-25T15:19:46Z</time>
					</trkpt>
					<trkpt lat="46.626290" lon="5.054820">
						<ele>208</ele>
						<time>2021-03-25T15:20:26Z</time>
					</trkpt>
					<trkpt lat="46.626000" lon="5.054900">
						<ele>208</ele>
						<time>2021-03-25T15:20:32Z</time>
					</trkpt>
					<trkpt lat="46.624110" lon="5.055530">
						<ele>207</ele>
						<time>2021-03-25T15:21:06Z</time>
					</trkpt>
					<trkpt lat="46.622430" lon="5.056340">
						<ele>207</ele>
						<time>2021-03-25T15:21:38Z</time>
					</trkpt>
					<trkpt lat="46.622040" lon="5.056480">
						<ele>208</ele>
						<time>2021-03-25T15:21:45Z</time>
					</trkpt>
					<trkpt lat="46.621940" lon="5.056490">
						<ele>208</ele>
						<time>2021-03-25T15:21:47Z</time>
					</trkpt>
					<trkpt lat="46.621820" lon="5.056470">
						<ele>208</ele>
						<time>2021-03-25T15:21:49Z</time>
					</trkpt>
					<trkpt lat="46.621680" lon="5.056420">
						<ele>208</ele>
						<time>2021-03-25T15:21:51Z</time>
					</trkpt>
					<trkpt lat="46.621450" lon="5.056260">
						<ele>207</ele>
						<time>2021-03-25T15:21:56Z</time>
					</trkpt>
					<trkpt lat="46.620760" lon="5.055730">
						<ele>204</ele>
						<time>2021-03-25T15:22:10Z</time>
					</trkpt>
					<trkpt lat="46.618180" lon="5.053960">
						<ele>200</ele>
						<time>2021-03-25T15:23:00Z</time>
					</trkpt>
					<trkpt lat="46.617860" lon="5.053730">
						<ele>200</ele>
						<time>2021-03-25T15:23:07Z</time>
					</trkpt>
					<trkpt lat="46.617690" lon="5.053580">
						<ele>199</ele>
						<time>2021-03-25T15:23:10Z</time>
					</trkpt>
					<trkpt lat="46.617560" lon="5.053410">
						<ele>198</ele>
						<time>2021-03-25T15:23:13Z</time>
					</trkpt>
					<trkpt lat="46.617390" lon="5.053160">
						<ele>198</ele>
						<time>2021-03-25T15:23:18Z</time>
					</trkpt>
					<trkpt lat="46.617320" lon="5.052990">
						<ele>198</ele>
						<time>2021-03-25T15:23:20Z</time>
					</trkpt>
					<trkpt lat="46.617200" lon="5.052690">
						<ele>198</ele>
						<time>2021-03-25T15:23:24Z</time>
					</trkpt>
					<trkpt lat="46.616930" lon="5.051750">
						<ele>198</ele>
						<time>2021-03-25T15:23:37Z</time>
					</trkpt>
					<trkpt lat="46.616770" lon="5.051410">
						<ele>199</ele>
						<time>2021-03-25T15:23:42Z</time>
					</trkpt>
					<trkpt lat="46.616620" lon="5.051210">
						<ele>200</ele>
						<time>2021-03-25T15:23:46Z</time>
					</trkpt>
					<trkpt lat="46.616440" lon="5.051010">
						<ele>200</ele>
						<time>2021-03-25T15:23:50Z</time>
					</trkpt>
					<trkpt lat="46.616230" lon="5.050820">
						<ele>201</ele>
						<time>2021-03-25T15:23:54Z</time>
					</trkpt>
					<trkpt lat="46.615710" lon="5.050470">
						<ele>202</ele>
						<time>2021-03-25T15:24:04Z</time>
					</trkpt>
					<trkpt lat="46.615520" lon="5.050300">
						<ele>203</ele>
						<time>2021-03-25T15:24:08Z</time>
					</trkpt>
					<trkpt lat="46.614610" lon="5.049400">
						<ele>201</ele>
						<time>2021-03-25T15:24:28Z</time>
					</trkpt>
					<trkpt lat="46.614480" lon="5.049300">
						<ele>201</ele>
						<time>2021-03-25T15:24:30Z</time>
					</trkpt>
					<trkpt lat="46.614290" lon="5.049210">
						<ele>200</ele>
						<time>2021-03-25T15:24:34Z</time>
					</trkpt>
					<trkpt lat="46.614080" lon="5.049170">
						<ele>199</ele>
						<time>2021-03-25T15:24:38Z</time>
					</trkpt>
					<trkpt lat="46.613510" lon="5.049140">
						<ele>195</ele>
						<time>2021-03-25T15:24:48Z</time>
					</trkpt>
					<trkpt lat="46.613010" lon="5.049150">
						<ele>191</ele>
						<time>2021-03-25T15:24:57Z</time>
					</trkpt>
					<trkpt lat="46.612500" lon="5.049120">
						<ele>187</ele>
						<time>2021-03-25T15:25:06Z</time>
					</trkpt>
					<trkpt lat="46.611420" lon="5.048990">
						<ele>185</ele>
						<time>2021-03-25T15:25:25Z</time>
					</trkpt>
					<trkpt lat="46.611220" lon="5.048950">
						<ele>185</ele>
						<time>2021-03-25T15:25:29Z</time>
					</trkpt>
					<trkpt lat="46.611110" lon="5.048890">
						<ele>185</ele>
						<time>2021-03-25T15:25:31Z</time>
					</trkpt>
					<trkpt lat="46.610990" lon="5.048790">
						<ele>186</ele>
						<time>2021-03-25T15:25:33Z</time>
					</trkpt>
					<trkpt lat="46.610470" lon="5.048280">
						<ele>190</ele>
						<time>2021-03-25T15:25:44Z</time>
					</trkpt>
					<trkpt lat="46.610340" lon="5.048200">
						<ele>190</ele>
						<time>2021-03-25T15:25:47Z</time>
					</trkpt>
					<trkpt lat="46.609680" lon="5.047960">
						<ele>193</ele>
						<time>2021-03-25T15:25:59Z</time>
					</trkpt>
					<trkpt lat="46.609430" lon="5.047840">
						<ele>194</ele>
						<time>2021-03-25T15:26:04Z</time>
					</trkpt>
					<trkpt lat="46.609120" lon="5.047670">
						<ele>196</ele>
						<time>2021-03-25T15:26:10Z</time>
					</trkpt>
					<trkpt lat="46.609010" lon="5.047540">
						<ele>196</ele>
						<time>2021-03-25T15:26:12Z</time>
					</trkpt>
					<trkpt lat="46.608930" lon="5.047440">
						<ele>195</ele>
						<time>2021-03-25T15:26:14Z</time>
					</trkpt>
					<trkpt lat="46.608870" lon="5.047280">
						<ele>195</ele>
						<time>2021-03-25T15:26:16Z</time>
					</trkpt>
					<trkpt lat="46.608720" lon="5.046300">
						<ele>194</ele>
						<time>2021-03-25T15:26:28Z</time>
					</trkpt>
					<trkpt lat="46.608630" lon="5.046030">
						<ele>194</ele>
						<time>2021-03-25T15:26:32Z</time>
					</trkpt>
					<trkpt lat="46.608570" lon="5.045930">
						<ele>194</ele>
						<time>2021-03-25T15:26:34Z</time>
					</trkpt>
					<trkpt lat="46.608450" lon="5.045840">
						<ele>193</ele>
						<time>2021-03-25T15:26:36Z</time>
					</trkpt>
					<trkpt lat="46.607740" lon="5.045370">
						<ele>193</ele>
						<time>2021-03-25T15:26:50Z</time>
					</trkpt>
					<trkpt lat="46.606100" lon="5.043840">
						<ele>194</ele>
						<time>2021-03-25T15:27:25Z</time>
					</trkpt>
					<trkpt lat="46.605970" lon="5.043750">
						<ele>194</ele>
						<time>2021-03-25T15:27:27Z</time>
					</trkpt>
					<trkpt lat="46.605820" lon="5.043680">
						<ele>194</ele>
						<time>2021-03-25T15:27:30Z</time>
					</trkpt>
					<trkpt lat="46.604860" lon="5.043470">
						<ele>194</ele>
						<time>2021-03-25T15:27:47Z</time>
					</trkpt>
					<trkpt lat="46.604690" lon="5.043410">
						<ele>195</ele>
						<time>2021-03-25T15:27:50Z</time>
					</trkpt>
					<trkpt lat="46.604550" lon="5.043330">
						<ele>195</ele>
						<time>2021-03-25T15:27:53Z</time>
					</trkpt>
					<trkpt lat="46.604330" lon="5.043130">
						<ele>196</ele>
						<time>2021-03-25T15:27:58Z</time>
					</trkpt>
					<trkpt lat="46.604200" lon="5.042970">
						<ele>196</ele>
						<time>2021-03-25T15:28:01Z</time>
					</trkpt>
					<trkpt lat="46.603580" lon="5.042080">
						<ele>198</ele>
						<time>2021-03-25T15:28:16Z</time>
					</trkpt>
					<trkpt lat="46.603460" lon="5.041960">
						<ele>199</ele>
						<time>2021-03-25T15:28:19Z</time>
					</trkpt>
					<trkpt lat="46.603340" lon="5.041870">
						<ele>199</ele>
						<time>2021-03-25T15:28:21Z</time>
					</trkpt>
					<trkpt lat="46.602790" lon="5.041570">
						<ele>198</ele>
						<time>2021-03-25T15:28:32Z</time>
					</trkpt>
					<trkpt lat="46.602690" lon="5.041540">
						<ele>198</ele>
						<time>2021-03-25T15:28:33Z</time>
					</trkpt>
					<trkpt lat="46.602590" lon="5.041540">
						<ele>198</ele>
						<time>2021-03-25T15:28:35Z</time>
					</trkpt>
					<trkpt lat="46.602480" lon="5.041580">
						<ele>198</ele>
						<time>2021-03-25T15:28:37Z</time>
					</trkpt>
					<trkpt lat="46.602080" lon="5.041880">
						<ele>198</ele>
						<time>2021-03-25T15:28:45Z</time>
					</trkpt>
					<trkpt lat="46.601840" lon="5.041990">
						<ele>198</ele>
						<time>2021-03-25T15:28:50Z</time>
					</trkpt>
					<trkpt lat="46.600130" lon="5.041930">
						<ele>194</ele>
						<time>2021-03-25T15:29:20Z</time>
					</trkpt>
					<trkpt lat="46.600040" lon="5.041900">
						<ele>194</ele>
						<time>2021-03-25T15:29:22Z</time>
					</trkpt>
					<trkpt lat="46.599600" lon="5.041480">
						<ele>195</ele>
						<time>2021-03-25T15:29:31Z</time>
					</trkpt>
					<trkpt lat="46.599300" lon="5.041280">
						<ele>195</ele>
						<time>2021-03-25T15:29:37Z</time>
					</trkpt>
					<trkpt lat="46.597320" lon="5.040360">
						<ele>203</ele>
						<time>2021-03-25T15:30:14Z</time>
					</trkpt>
					<trkpt lat="46.597190" lon="5.040250">
						<ele>203</ele>
						<time>2021-03-25T15:30:17Z</time>
					</trkpt>
					<trkpt lat="46.597100" lon="5.040120">
						<ele>203</ele>
						<time>2021-03-25T15:30:19Z</time>
					</trkpt>
					<trkpt lat="46.597040" lon="5.039980">
						<ele>204</ele>
						<time>2021-03-25T15:30:21Z</time>
					</trkpt>
					<trkpt lat="46.596980" lon="5.039750">
						<ele>204</ele>
						<time>2021-03-25T15:30:24Z</time>
					</trkpt>
					<trkpt lat="46.596470" lon="5.037120">
						<ele>205</ele>
						<time>2021-03-25T15:30:57Z</time>
					</trkpt>
					<trkpt lat="46.596390" lon="5.036910">
						<ele>205</ele>
						<time>2021-03-25T15:31:00Z</time>
					</trkpt>
					<trkpt lat="46.596360" lon="5.036880">
						<ele>205</ele>
						<time>2021-03-25T15:31:01Z</time>
					</trkpt>
					<trkpt lat="46.596180" lon="5.036760">
						<ele>205</ele>
						<time>2021-03-25T15:31:05Z</time>
					</trkpt>
					<trkpt lat="46.596070" lon="5.036740">
						<ele>206</ele>
						<time>2021-03-25T15:31:07Z</time>
					</trkpt>
					<trkpt lat="46.594340" lon="5.036590">
						<ele>203</ele>
						<time>2021-03-25T15:31:37Z</time>
					</trkpt>
					<trkpt lat="46.594080" lon="5.036620">
						<ele>203</ele>
						<time>2021-03-25T15:31:42Z</time>
					</trkpt>
					<trkpt lat="46.593300" lon="5.036840">
						<ele>203</ele>
						<time>2021-03-25T15:31:56Z</time>
					</trkpt>
					<trkpt lat="46.593150" lon="5.036870">
						<ele>203</ele>
						<time>2021-03-25T15:31:59Z</time>
					</trkpt>
					<trkpt lat="46.593070" lon="5.036850">
						<ele>204</ele>
						<time>2021-03-25T15:32:00Z</time>
					</trkpt>
					<trkpt lat="46.592890" lon="5.036750">
						<ele>204</ele>
						<time>2021-03-25T15:32:04Z</time>
					</trkpt>
					<trkpt lat="46.591950" lon="5.035890">
						<ele>207</ele>
						<time>2021-03-25T15:32:23Z</time>
					</trkpt>
					<trkpt lat="46.591810" lon="5.035810">
						<ele>207</ele>
						<time>2021-03-25T15:32:26Z</time>
					</trkpt>
					<trkpt lat="46.591610" lon="5.035790">
						<ele>207</ele>
						<time>2021-03-25T15:32:30Z</time>
					</trkpt>
					<trkpt lat="46.590950" lon="5.035800">
						<ele>208</ele>
						<time>2021-03-25T15:32:41Z</time>
					</trkpt>
					<trkpt lat="46.590540" lon="5.033740">
						<ele>208</ele>
						<time>2021-03-25T15:33:08Z</time>
					</trkpt>
					<trkpt lat="46.590100" lon="5.032600">
						<ele>210</ele>
						<time>2021-03-25T15:33:24Z</time>
					</trkpt>
					<trkpt lat="46.589940" lon="5.032070">
						<ele>211</ele>
						<time>2021-03-25T15:33:31Z</time>
					</trkpt>
					<trkpt lat="46.589830" lon="5.031630">
						<ele>212</ele>
						<time>2021-03-25T15:33:36Z</time>
					</trkpt>
					<trkpt lat="46.589590" lon="5.030440">
						<ele>210</ele>
						<time>2021-03-25T15:33:52Z</time>
					</trkpt>
					<trkpt lat="46.589500" lon="5.030220">
						<ele>210</ele>
						<time>2021-03-25T15:33:55Z</time>
					</trkpt>
					<trkpt lat="46.589350" lon="5.030030">
						<ele>210</ele>
						<time>2021-03-25T15:33:58Z</time>
					</trkpt>
					<trkpt lat="46.589190" lon="5.029930">
						<ele>210</ele>
						<time>2021-03-25T15:34:01Z</time>
					</trkpt>
					<trkpt lat="46.589030" lon="5.029910">
						<ele>210</ele>
						<time>2021-03-25T15:34:04Z</time>
					</trkpt>
					<trkpt lat="46.588900" lon="5.029950">
						<ele>210</ele>
						<time>2021-03-25T15:34:07Z</time>
					</trkpt>
					<trkpt lat="46.587480" lon="5.030810">
						<ele>211</ele>
						<time>2021-03-25T15:34:34Z</time>
					</trkpt>
					<trkpt lat="46.587020" lon="5.031030">
						<ele>210</ele>
						<time>2021-03-25T15:34:43Z</time>
					</trkpt>
					<trkpt lat="46.586880" lon="5.031070">
						<ele>210</ele>
						<time>2021-03-25T15:34:45Z</time>
					</trkpt>
					<trkpt lat="46.586600" lon="5.031070">
						<ele>210</ele>
						<time>2021-03-25T15:34:50Z</time>
					</trkpt>
					<trkpt lat="46.586440" lon="5.031020">
						<ele>211</ele>
						<time>2021-03-25T15:34:53Z</time>
					</trkpt>
					<trkpt lat="46.586260" lon="5.030930">
						<ele>213</ele>
						<time>2021-03-25T15:34:56Z</time>
					</trkpt>
					<trkpt lat="46.583260" lon="5.029090">
						<ele>212</ele>
						<time>2021-03-25T15:35:54Z</time>
					</trkpt>
					<trkpt lat="46.583070" lon="5.028950">
						<ele>212</ele>
						<time>2021-03-25T15:35:58Z</time>
					</trkpt>
					<trkpt lat="46.582910" lon="5.028800">
						<ele>212</ele>
						<time>2021-03-25T15:36:02Z</time>
					</trkpt>
					<trkpt lat="46.582770" lon="5.028620">
						<ele>212</ele>
						<time>2021-03-25T15:36:05Z</time>
					</trkpt>
					<trkpt lat="46.582500" lon="5.028220">
						<ele>213</ele>
						<time>2021-03-25T15:36:12Z</time>
					</trkpt>
					<trkpt lat="46.582320" lon="5.027870">
						<ele>213</ele>
						<time>2021-03-25T15:36:17Z</time>
					</trkpt>
					<trkpt lat="46.582110" lon="5.027360">
						<ele>212</ele>
						<time>2021-03-25T15:36:24Z</time>
					</trkpt>
					<trkpt lat="46.580830" lon="5.023680">
						<ele>203</ele>
						<time>2021-03-25T15:37:15Z</time>
					</trkpt>
					<trkpt lat="46.579830" lon="5.020620">
						<ele>185</ele>
						<time>2021-03-25T15:37:56Z</time>
					</trkpt>
					<trkpt lat="46.580900" lon="5.018220">
						<ele>191</ele>
						<time>2021-03-25T15:38:31Z</time>
					</trkpt>
					<trkpt lat="46.580990" lon="5.017980">
						<ele>191</ele>
						<time>2021-03-25T15:38:35Z</time>
					</trkpt>
					<trkpt lat="46.581120" lon="5.016510">
						<ele>188</ele>
						<time>2021-03-25T15:38:53Z</time>
					</trkpt>
					<trkpt lat="46.581190" lon="5.016200">
						<ele>186</ele>
						<time>2021-03-25T15:38:57Z</time>
					</trkpt>
					<trkpt lat="46.581480" lon="5.015440">
						<ele>183</ele>
						<time>2021-03-25T15:39:07Z</time>
					</trkpt>
					<trkpt lat="46.581570" lon="5.015230">
						<ele>182</ele>
						<time>2021-03-25T15:39:10Z</time>
					</trkpt>
					<trkpt lat="46.581800" lon="5.014870">
						<ele>182</ele>
						<time>2021-03-25T15:39:16Z</time>
					</trkpt>
					<trkpt lat="46.582530" lon="5.013910">
						<ele>188</ele>
						<time>2021-03-25T15:39:34Z</time>
					</trkpt>
					<trkpt lat="46.582580" lon="5.013810">
						<ele>189</ele>
						<time>2021-03-25T15:39:35Z</time>
					</trkpt>
					<trkpt lat="46.582610" lon="5.013720">
						<ele>190</ele>
						<time>2021-03-25T15:39:37Z</time>
					</trkpt>
					<trkpt lat="46.582640" lon="5.013620">
						<ele>190</ele>
						<time>2021-03-25T15:39:38Z</time>
					</trkpt>
					<trkpt lat="46.582630" lon="5.013360">
						<ele>192</ele>
						<time>2021-03-25T15:39:41Z</time>
					</trkpt>
					<trkpt lat="46.582430" lon="5.012700">
						<ele>194</ele>
						<time>2021-03-25T15:39:50Z</time>
					</trkpt>
					<trkpt lat="46.582410" lon="5.012530">
						<ele>194</ele>
						<time>2021-03-25T15:39:52Z</time>
					</trkpt>
					<trkpt lat="46.582410" lon="5.012080">
						<ele>195</ele>
						<time>2021-03-25T15:39:57Z</time>
					</trkpt>
					<trkpt lat="46.582440" lon="5.011870">
						<ele>195</ele>
						<time>2021-03-25T15:40:00Z</time>
					</trkpt>
					<trkpt lat="46.582490" lon="5.011680">
						<ele>196</ele>
						<time>2021-03-25T15:40:03Z</time>
					</trkpt>
					<trkpt lat="46.582610" lon="5.011380">
						<ele>197</ele>
						<time>2021-03-25T15:40:07Z</time>
					</trkpt>
					<trkpt lat="46.583070" lon="5.010440">
						<ele>200</ele>
						<time>2021-03-25T15:40:21Z</time>
					</trkpt>
					<trkpt lat="46.583350" lon="5.009810">
						<ele>201</ele>
						<time>2021-03-25T15:40:30Z</time>
					</trkpt>
					<trkpt lat="46.583760" lon="5.008390">
						<ele>204</ele>
						<time>2021-03-25T15:40:49Z</time>
					</trkpt>
					<trkpt lat="46.583800" lon="5.008010">
						<ele>204</ele>
						<time>2021-03-25T15:40:54Z</time>
					</trkpt>
					<trkpt lat="46.583710" lon="5.002330">
						<ele>198</ele>
						<time>2021-03-25T15:42:03Z</time>
					</trkpt>
					<trkpt lat="46.583700" lon="5.000520">
						<ele>197</ele>
						<time>2021-03-25T15:42:25Z</time>
					</trkpt>
					<trkpt lat="46.583660" lon="5.000000">
						<ele>197</ele>
						<time>2021-03-25T15:42:32Z</time>
					</trkpt>
					<trkpt lat="46.583590" lon="4.999590">
						<ele>197</ele>
						<time>2021-03-25T15:42:37Z</time>
					</trkpt>
					<trkpt lat="46.583520" lon="4.999360">
						<ele>196</ele>
						<time>2021-03-25T15:42:40Z</time>
					</trkpt>
					<trkpt lat="46.583370" lon="4.998970">
						<ele>197</ele>
						<time>2021-03-25T15:42:45Z</time>
					</trkpt>
					<trkpt lat="46.583260" lon="4.998750">
						<ele>197</ele>
						<time>2021-03-25T15:42:49Z</time>
					</trkpt>
					<trkpt lat="46.580950" lon="4.994720">
						<ele>193</ele>
						<time>2021-03-25T15:43:53Z</time>
					</trkpt>
					<trkpt lat="46.580820" lon="4.994470">
						<ele>192</ele>
						<time>2021-03-25T15:43:57Z</time>
					</trkpt>
					<trkpt lat="46.580730" lon="4.994240">
						<ele>192</ele>
						<time>2021-03-25T15:44:00Z</time>
					</trkpt>
					<trkpt lat="46.580640" lon="4.993930">
						<ele>192</ele>
						<time>2021-03-25T15:44:04Z</time>
					</trkpt>
					<trkpt lat="46.580500" lon="4.993210">
						<ele>192</ele>
						<time>2021-03-25T15:44:13Z</time>
					</trkpt>
					<trkpt lat="46.579610" lon="4.986660">
						<ele>188</ele>
						<time>2021-03-25T15:45:35Z</time>
					</trkpt>
					<trkpt lat="46.579510" lon="4.986060">
						<ele>188</ele>
						<time>2021-03-25T15:45:42Z</time>
					</trkpt>
					<trkpt lat="46.579380" lon="4.983580">
						<ele>187</ele>
						<time>2021-03-25T15:46:13Z</time>
					</trkpt>
					<trkpt lat="46.579370" lon="4.983310">
						<ele>187</ele>
						<time>2021-03-25T15:46:16Z</time>
					</trkpt>
					<trkpt lat="46.579340" lon="4.983100">
						<ele>187</ele>
						<time>2021-03-25T15:46:19Z</time>
					</trkpt>
					<trkpt lat="46.579290" lon="4.982890">
						<ele>187</ele>
						<time>2021-03-25T15:46:22Z</time>
					</trkpt>
					<trkpt lat="46.579210" lon="4.982630">
						<ele>187</ele>
						<time>2021-03-25T15:46:25Z</time>
					</trkpt>
					<trkpt lat="46.578190" lon="4.979730">
						<ele>191</ele>
						<time>2021-03-25T15:47:05Z</time>
					</trkpt>
					<trkpt lat="46.578070" lon="4.979310">
						<ele>192</ele>
						<time>2021-03-25T15:47:10Z</time>
					</trkpt>
					<trkpt lat="46.578060" lon="4.979070">
						<ele>192</ele>
						<time>2021-03-25T15:47:13Z</time>
					</trkpt>
					<trkpt lat="46.578070" lon="4.978150">
						<ele>193</ele>
						<time>2021-03-25T15:47:25Z</time>
					</trkpt>
					<trkpt lat="46.578090" lon="4.977880">
						<ele>193</ele>
						<time>2021-03-25T15:47:28Z</time>
					</trkpt>
					<trkpt lat="46.578190" lon="4.977290">
						<ele>194</ele>
						<time>2021-03-25T15:47:35Z</time>
					</trkpt>
					<trkpt lat="46.578680" lon="4.975130">
						<ele>193</ele>
						<time>2021-03-25T15:48:03Z</time>
					</trkpt>
					<trkpt lat="46.578780" lon="4.974790">
						<ele>193</ele>
						<time>2021-03-25T15:48:08Z</time>
					</trkpt>
					<trkpt lat="46.578890" lon="4.974540">
						<ele>192</ele>
						<time>2021-03-25T15:48:11Z</time>
					</trkpt>
					<trkpt lat="46.579510" lon="4.973460">
						<ele>191</ele>
						<time>2021-03-25T15:48:29Z</time>
					</trkpt>
					<trkpt lat="46.580160" lon="4.972280">
						<ele>189</ele>
						<time>2021-03-25T15:48:47Z</time>
					</trkpt>
					<trkpt lat="46.579990" lon="4.972130">
						<ele>189</ele>
						<time>2021-03-25T15:48:51Z</time>
					</trkpt>
					<trkpt lat="46.579450" lon="4.971410">
						<ele>188</ele>
						<time>2021-03-25T15:49:04Z</time>
					</trkpt>
					<trkpt lat="46.577650" lon="4.969300">
						<ele>187</ele>
						<time>2021-03-25T15:49:45Z</time>
					</trkpt>
					<trkpt lat="46.576940" lon="4.968690">
						<ele>188</ele>
						<time>2021-03-25T15:49:59Z</time>
					</trkpt>
					<trkpt lat="46.576440" lon="4.968200">
						<ele>189</ele>
						<time>2021-03-25T15:50:10Z</time>
					</trkpt>
					<trkpt lat="46.576160" lon="4.967880">
						<ele>188</ele>
						<time>2021-03-25T15:50:16Z</time>
					</trkpt>
					<trkpt lat="46.575310" lon="4.966800">
						<ele>187</ele>
						<time>2021-03-25T15:50:37Z</time>
					</trkpt>
					<trkpt lat="46.575330" lon="4.966540">
						<ele>187</ele>
						<time>2021-03-25T15:50:40Z</time>
					</trkpt>
					<trkpt lat="46.575360" lon="4.964110">
						<ele>185</ele>
						<time>2021-03-25T15:51:09Z</time>
					</trkpt>
					<trkpt lat="46.575390" lon="4.963960">
						<ele>185</ele>
						<time>2021-03-25T15:51:11Z</time>
					</trkpt>
					<trkpt lat="46.575570" lon="4.963340">
						<ele>185</ele>
						<time>2021-03-25T15:51:20Z</time>
					</trkpt>
					<trkpt lat="46.575550" lon="4.963190">
						<ele>185</ele>
						<time>2021-03-25T15:51:21Z</time>
					</trkpt>
					<trkpt lat="46.575510" lon="4.963040">
						<ele>185</ele>
						<time>2021-03-25T15:51:23Z</time>
					</trkpt>
					<trkpt lat="46.574050" lon="4.960070">
						<ele>181</ele>
						<time>2021-03-25T15:52:08Z</time>
					</trkpt>
					<trkpt lat="46.573930" lon="4.959570">
						<ele>181</ele>
						<time>2021-03-25T15:52:15Z</time>
					</trkpt>
					<trkpt lat="46.573930" lon="4.959330">
						<ele>181</ele>
						<time>2021-03-25T15:52:18Z</time>
					</trkpt>
					<trkpt lat="46.573950" lon="4.959070">
						<ele>181</ele>
						<time>2021-03-25T15:52:21Z</time>
					</trkpt>
					<trkpt lat="46.573980" lon="4.958080">
						<ele>181</ele>
						<time>2021-03-25T15:52:33Z</time>
					</trkpt>
					<trkpt lat="46.574030" lon="4.955290">
						<ele>178</ele>
						<time>2021-03-25T15:53:07Z</time>
					</trkpt>
					<trkpt lat="46.574120" lon="4.952670">
						<ele>175</ele>
						<time>2021-03-25T15:53:39Z</time>
					</trkpt>
					<trkpt lat="46.574110" lon="4.952340">
						<ele>175</ele>
						<time>2021-03-25T15:53:43Z</time>
					</trkpt>
					<trkpt lat="46.574070" lon="4.952170">
						<ele>175</ele>
						<time>2021-03-25T15:53:45Z</time>
					</trkpt>
					<trkpt lat="46.572300" lon="4.950200">
						<ele>177</ele>
						<time>2021-03-25T15:54:25Z</time>
					</trkpt>
					<trkpt lat="46.572140" lon="4.950000">
						<ele>177</ele>
						<time>2021-03-25T15:54:29Z</time>
					</trkpt>
					<trkpt lat="46.572050" lon="4.949820">
						<ele>177</ele>
						<time>2021-03-25T15:54:31Z</time>
					</trkpt>
					<trkpt lat="46.571990" lon="4.949640">
						<ele>176</ele>
						<time>2021-03-25T15:54:34Z</time>
					</trkpt>
					<trkpt lat="46.571870" lon="4.949200">
						<ele>175</ele>
						<time>2021-03-25T15:54:40Z</time>
					</trkpt>
					<trkpt lat="46.571790" lon="4.949010">
						<ele>175</ele>
						<time>2021-03-25T15:54:42Z</time>
					</trkpt>
					<trkpt lat="46.571600" lon="4.948660">
						<ele>175</ele>
						<time>2021-03-25T15:54:48Z</time>
					</trkpt>
					<trkpt lat="46.571490" lon="4.948390">
						<ele>174</ele>
						<time>2021-03-25T15:54:52Z</time>
					</trkpt>
					<trkpt lat="46.571440" lon="4.948110">
						<ele>174</ele>
						<time>2021-03-25T15:54:55Z</time>
					</trkpt>
					<trkpt lat="46.571390" lon="4.947640">
						<ele>174</ele>
						<time>2021-03-25T15:55:01Z</time>
					</trkpt>
					<trkpt lat="46.571310" lon="4.947340">
						<ele>174</ele>
						<time>2021-03-25T15:55:05Z</time>
					</trkpt>
					<trkpt lat="46.570610" lon="4.945770">
						<ele>175</ele>
						<time>2021-03-25T15:55:28Z</time>
					</trkpt>
					<trkpt lat="46.570460" lon="4.945500">
						<ele>176</ele>
						<time>2021-03-25T15:55:32Z</time>
					</trkpt>
					<trkpt lat="46.570360" lon="4.945360">
						<ele>176</ele>
						<time>2021-03-25T15:55:35Z</time>
					</trkpt>
					<trkpt lat="46.570190" lon="4.944880">
						<ele>176</ele>
						<time>2021-03-25T15:55:41Z</time>
					</trkpt>
					<trkpt lat="46.569910" lon="4.943940">
						<ele>175</ele>
						<time>2021-03-25T15:55:54Z</time>
					</trkpt>
					<trkpt lat="46.569670" lon="4.943380">
						<ele>175</ele>
						<time>2021-03-25T15:56:02Z</time>
					</trkpt>
					<trkpt lat="46.569390" lon="4.942610">
						<ele>174</ele>
						<time>2021-03-25T15:56:12Z</time>
					</trkpt>
					<trkpt lat="46.569270" lon="4.942330">
						<ele>174</ele>
						<time>2021-03-25T15:56:16Z</time>
					</trkpt>
					<trkpt lat="46.569110" lon="4.942020">
						<ele>173</ele>
						<time>2021-03-25T15:56:21Z</time>
					</trkpt>
					<trkpt lat="46.568380" lon="4.940890">
						<ele>173</ele>
						<time>2021-03-25T15:56:40Z</time>
					</trkpt>
					<trkpt lat="46.568180" lon="4.940520">
						<ele>173</ele>
						<time>2021-03-25T15:56:46Z</time>
					</trkpt>
					<trkpt lat="46.567960" lon="4.940050">
						<ele>173</ele>
						<time>2021-03-25T15:56:53Z</time>
					</trkpt>
					<trkpt lat="46.567880" lon="4.939820">
						<ele>173</ele>
						<time>2021-03-25T15:56:56Z</time>
					</trkpt>
					<trkpt lat="46.567630" lon="4.939310">
						<ele>174</ele>
						<time>2021-03-25T15:57:04Z</time>
					</trkpt>
					<trkpt lat="46.567510" lon="4.939020">
						<ele>175</ele>
						<time>2021-03-25T15:57:08Z</time>
					</trkpt>
					<trkpt lat="46.567320" lon="4.938420">
						<ele>176</ele>
						<time>2021-03-25T15:57:16Z</time>
					</trkpt>
					<trkpt lat="46.566720" lon="4.937060">
						<ele>177</ele>
						<time>2021-03-25T15:57:36Z</time>
					</trkpt>
					<trkpt lat="46.566060" lon="4.935840">
						<ele>179</ele>
						<time>2021-03-25T15:57:55Z</time>
					</trkpt>
					<trkpt lat="46.565500" lon="4.934610">
						<ele>175</ele>
						<time>2021-03-25T15:58:13Z</time>
					</trkpt>
					<trkpt lat="46.565320" lon="4.934290">
						<ele>173</ele>
						<time>2021-03-25T15:58:18Z</time>
					</trkpt>
					<trkpt lat="46.564970" lon="4.933770">
						<ele>175</ele>
						<time>2021-03-25T15:58:27Z</time>
					</trkpt>
					<trkpt lat="46.564730" lon="4.933430">
						<ele>176</ele>
						<time>2021-03-25T15:58:33Z</time>
					</trkpt>
					<trkpt lat="46.564190" lon="4.932660">
						<ele>176</ele>
						<time>2021-03-25T15:58:46Z</time>
					</trkpt>
					<trkpt lat="46.563940" lon="4.932400">
						<ele>177</ele>
						<time>2021-03-25T15:58:52Z</time>
					</trkpt>
					<trkpt lat="46.563860" lon="4.932340">
						<ele>177</ele>
						<time>2021-03-25T15:58:53Z</time>
					</trkpt>
					<trkpt lat="46.563790" lon="4.932300">
						<ele>177</ele>
						<time>2021-03-25T15:58:55Z</time>
					</trkpt>
					<trkpt lat="46.563530" lon="4.931880">
						<ele>178</ele>
						<time>2021-03-25T15:59:01Z</time>
					</trkpt>
					<trkpt lat="46.563380" lon="4.931680">
						<ele>178</ele>
						<time>2021-03-25T15:59:05Z</time>
					</trkpt>
					<trkpt lat="46.561660" lon="4.929910">
						<ele>177</ele>
						<time>2021-03-25T15:59:43Z</time>
					</trkpt>
					<trkpt lat="46.560600" lon="4.929040">
						<ele>175</ele>
						<time>2021-03-25T16:00:04Z</time>
					</trkpt>
					<trkpt lat="46.560400" lon="4.928810">
						<ele>176</ele>
						<time>2021-03-25T16:00:09Z</time>
					</trkpt>
					<trkpt lat="46.560460" lon="4.928750">
						<ele>176</ele>
						<time>2021-03-25T16:00:10Z</time>
					</trkpt>
					<trkpt lat="46.560510" lon="4.928670">
						<ele>175</ele>
						<time>2021-03-25T16:00:11Z</time>
					</trkpt>
					<trkpt lat="46.560630" lon="4.928340">
						<ele>174</ele>
						<time>2021-03-25T16:00:16Z</time>
					</trkpt>
					<trkpt lat="46.560740" lon="4.927990">
						<ele>173</ele>
						<time>2021-03-25T16:00:21Z</time>
					</trkpt>
					<trkpt lat="46.560820" lon="4.927720">
						<ele>173</ele>
						<time>2021-03-25T16:00:24Z</time>
					</trkpt>
					<trkpt lat="46.562350" lon="4.922440">
						<ele>171</ele>
						<time>2021-03-25T16:01:34Z</time>
					</trkpt>
					<trkpt lat="46.562370" lon="4.922360">
						<ele>171</ele>
						<time>2021-03-25T16:01:35Z</time>
					</trkpt>
					<trkpt lat="46.563020" lon="4.920130">
						<ele>171</ele>
						<time>2021-03-25T16:02:05Z</time>
					</trkpt>
					<trkpt lat="46.563090" lon="4.919880">
						<ele>172</ele>
						<time>2021-03-25T16:02:08Z</time>
					</trkpt>
					<trkpt lat="46.564560" lon="4.914790">
						<ele>175</ele>
						<time>2021-03-25T16:03:16Z</time>
					</trkpt>
					<trkpt lat="46.564620" lon="4.914430">
						<ele>173</ele>
						<time>2021-03-25T16:03:20Z</time>
					</trkpt>
					<trkpt lat="46.564620" lon="4.914290">
						<ele>173</ele>
						<time>2021-03-25T16:03:22Z</time>
					</trkpt>
					<trkpt lat="46.564610" lon="4.914130">
						<ele>172</ele>
						<time>2021-03-25T16:03:24Z</time>
					</trkpt>
					<trkpt lat="46.564590" lon="4.914040">
						<ele>172</ele>
						<time>2021-03-25T16:03:25Z</time>
					</trkpt>
					<trkpt lat="46.564020" lon="4.912170">
						<ele>177</ele>
						<time>2021-03-25T16:03:50Z</time>
					</trkpt>
					<trkpt lat="46.564010" lon="4.912150">
						<ele>178</ele>
						<time>2021-03-25T16:03:51Z</time>
					</trkpt>
					<trkpt lat="46.563990" lon="4.912100">
						<ele>178</ele>
						<time>2021-03-25T16:03:51Z</time>
					</trkpt>
					<trkpt lat="46.563970" lon="4.912040">
						<ele>179</ele>
						<time>2021-03-25T16:03:52Z</time>
					</trkpt>
					<trkpt lat="46.563870" lon="4.911710">
						<ele>182</ele>
						<time>2021-03-25T16:03:56Z</time>
					</trkpt>
					<trkpt lat="46.563830" lon="4.911570">
						<ele>183</ele>
						<time>2021-03-25T16:03:58Z</time>
					</trkpt>
					<trkpt lat="46.563720" lon="4.911230">
						<ele>185</ele>
						<time>2021-03-25T16:04:03Z</time>
					</trkpt>
					<trkpt lat="46.563660" lon="4.911030">
						<ele>185</ele>
						<time>2021-03-25T16:04:06Z</time>
					</trkpt>
					<trkpt lat="46.563850" lon="4.910810">
						<ele>186</ele>
						<time>2021-03-25T16:04:10Z</time>
					</trkpt>
					<trkpt lat="46.563970" lon="4.910630">
						<ele>187</ele>
						<time>2021-03-25T16:04:13Z</time>
					</trkpt>
					<trkpt lat="46.564020" lon="4.910520">
						<ele>187</ele>
						<time>2021-03-25T16:04:15Z</time>
					</trkpt>
					<trkpt lat="46.564130" lon="4.910250">
						<ele>188</ele>
						<time>2021-03-25T16:04:18Z</time>
					</trkpt>
					<trkpt lat="46.564250" lon="4.910270">
						<ele>188</ele>
						<time>2021-03-25T16:04:21Z</time>
					</trkpt>
					<trkpt lat="46.564570" lon="4.909560">
						<ele>189</ele>
						<time>2021-03-25T16:04:31Z</time>
					</trkpt>
					<trkpt lat="46.564770" lon="4.909150">
						<ele>191</ele>
						<time>2021-03-25T16:04:37Z</time>
					</trkpt>
					<trkpt lat="46.564840" lon="4.908930">
						<ele>191</ele>
						<time>2021-03-25T16:04:40Z</time>
					</trkpt>
					<trkpt lat="46.564880" lon="4.908580">
						<ele>191</ele>
						<time>2021-03-25T16:04:44Z</time>
					</trkpt>
					<trkpt lat="46.564890" lon="4.908390">
						<ele>192</ele>
						<time>2021-03-25T16:04:47Z</time>
					</trkpt>
					<trkpt lat="46.564870" lon="4.908300">
						<ele>192</ele>
						<time>2021-03-25T16:04:48Z</time>
					</trkpt>
					<trkpt lat="46.564890" lon="4.908390">
						<ele>192</ele>
						<time>2021-03-25T16:04:49Z</time>
					</trkpt>
					<trkpt lat="46.564880" lon="4.908580">
						<ele>191</ele>
						<time>2021-03-25T16:04:51Z</time>
					</trkpt>
					<trkpt lat="46.564840" lon="4.908930">
						<ele>191</ele>
						<time>2021-03-25T16:04:56Z</time>
					</trkpt>
					<trkpt lat="46.564770" lon="4.909150">
						<ele>191</ele>
						<time>2021-03-25T16:04:59Z</time>
					</trkpt>
					<trkpt lat="46.564570" lon="4.909560">
						<ele>189</ele>
						<time>2021-03-25T16:05:05Z</time>
					</trkpt>
					<trkpt lat="46.564250" lon="4.910270">
						<ele>188</ele>
						<time>2021-03-25T16:05:15Z</time>
					</trkpt>
					<trkpt lat="46.564130" lon="4.910250">
						<ele>188</ele>
						<time>2021-03-25T16:05:17Z</time>
					</trkpt>
					<trkpt lat="46.564020" lon="4.910520">
						<ele>187</ele>
						<time>2021-03-25T16:05:21Z</time>
					</trkpt>
					<trkpt lat="46.563970" lon="4.910630">
						<ele>187</ele>
						<time>2021-03-25T16:05:23Z</time>
					</trkpt>
					<trkpt lat="46.563850" lon="4.910810">
						<ele>186</ele>
						<time>2021-03-25T16:05:26Z</time>
					</trkpt>
					<trkpt lat="46.563660" lon="4.911030">
						<ele>185</ele>
						<time>2021-03-25T16:05:30Z</time>
					</trkpt>
					<trkpt lat="46.563720" lon="4.911230">
						<ele>185</ele>
						<time>2021-03-25T16:05:33Z</time>
					</trkpt>
					<trkpt lat="46.563830" lon="4.911570">
						<ele>183</ele>
						<time>2021-03-25T16:05:37Z</time>
					</trkpt>
					<trkpt lat="46.563870" lon="4.911710">
						<ele>182</ele>
						<time>2021-03-25T16:05:39Z</time>
					</trkpt>
					<trkpt lat="46.563970" lon="4.912040">
						<ele>179</ele>
						<time>2021-03-25T16:05:44Z</time>
					</trkpt>
					<trkpt lat="46.563990" lon="4.912100">
						<ele>178</ele>
						<time>2021-03-25T16:05:45Z</time>
					</trkpt>
					<trkpt lat="46.564010" lon="4.912150">
						<ele>178</ele>
						<time>2021-03-25T16:05:45Z</time>
					</trkpt>
					<trkpt lat="46.564020" lon="4.912170">
						<ele>177</ele>
						<time>2021-03-25T16:05:46Z</time>
					</trkpt>
					<trkpt lat="46.564590" lon="4.914040">
						<ele>172</ele>
						<time>2021-03-25T16:06:11Z</time>
					</trkpt>
					<trkpt lat="46.564610" lon="4.914130">
						<ele>172</ele>
						<time>2021-03-25T16:06:12Z</time>
					</trkpt>
					<trkpt lat="46.564620" lon="4.914290">
						<ele>173</ele>
						<time>2021-03-25T16:06:14Z</time>
					</trkpt>
					<trkpt lat="46.564620" lon="4.914350">
						<ele>173</ele>
						<time>2021-03-25T16:06:14Z</time>
					</trkpt>
					<trkpt lat="46.564620" lon="4.914430">
						<ele>173</ele>
						<time>2021-03-25T16:06:15Z</time>
					</trkpt>
					<trkpt lat="46.564610" lon="4.914500">
						<ele>173</ele>
						<time>2021-03-25T16:06:16Z</time>
					</trkpt>
					<trkpt lat="46.564600" lon="4.914610">
						<ele>174</ele>
						<time>2021-03-25T16:06:18Z</time>
					</trkpt>
					<trkpt lat="46.564560" lon="4.914790">
						<ele>175</ele>
						<time>2021-03-25T16:06:20Z</time>
					</trkpt>
					<trkpt lat="46.564450" lon="4.915200">
						<ele>175</ele>
						<time>2021-03-25T16:06:25Z</time>
					</trkpt>
					<trkpt lat="46.564400" lon="4.915370">
						<ele>175</ele>
						<time>2021-03-25T16:06:28Z</time>
					</trkpt>
					<trkpt lat="46.564280" lon="4.915780">
						<ele>174</ele>
						<time>2021-03-25T16:06:33Z</time>
					</trkpt>
					<trkpt lat="46.563660" lon="4.917890">
						<ele>173</ele>
						<time>2021-03-25T16:07:01Z</time>
					</trkpt>
					<trkpt lat="46.565090" lon="4.918480">
						<ele>173</ele>
						<time>2021-03-25T16:07:28Z</time>
					</trkpt>
					<trkpt lat="46.565570" lon="4.918600">
						<ele>173</ele>
						<time>2021-03-25T16:07:36Z</time>
					</trkpt>
					<trkpt lat="46.565740" lon="4.918600">
						<ele>172</ele>
						<time>2021-03-25T16:07:39Z</time>
					</trkpt>
					<trkpt lat="46.565870" lon="4.918570">
						<ele>172</ele>
						<time>2021-03-25T16:07:42Z</time>
					</trkpt>
					<trkpt lat="46.565860" lon="4.918600">
						<ele>172</ele>
						<time>2021-03-25T16:07:42Z</time>
					</trkpt>
					<trkpt lat="46.564760" lon="4.919300">
						<ele>172</ele>
						<time>2021-03-25T16:08:03Z</time>
					</trkpt>
					<trkpt lat="46.564320" lon="4.919610">
						<ele>171</ele>
						<time>2021-03-25T16:08:12Z</time>
					</trkpt>
					<trkpt lat="46.564760" lon="4.919300">
						<ele>172</ele>
						<time>2021-03-25T16:08:21Z</time>
					</trkpt>
					<trkpt lat="46.565860" lon="4.918600">
						<ele>172</ele>
						<time>2021-03-25T16:08:42Z</time>
					</trkpt>
					<trkpt lat="46.565870" lon="4.918570">
						<ele>172</ele>
						<time>2021-03-25T16:08:43Z</time>
					</trkpt>
					<trkpt lat="46.566360" lon="4.918320">
						<ele>172</ele>
						<time>2021-03-25T16:08:52Z</time>
					</trkpt>
					<trkpt lat="46.566850" lon="4.918050">
						<ele>171</ele>
						<time>2021-03-25T16:09:01Z</time>
					</trkpt>
					<trkpt lat="46.567520" lon="4.917770">
						<ele>170</ele>
						<time>2021-03-25T16:09:14Z</time>
					</trkpt>
					<trkpt lat="46.568200" lon="4.917500">
						<ele>171</ele>
						<time>2021-03-25T16:09:26Z</time>
					</trkpt>
					<trkpt lat="46.568550" lon="4.917430">
						<ele>171</ele>
						<time>2021-03-25T16:09:32Z</time>
					</trkpt>
					<trkpt lat="46.570060" lon="4.917240">
						<ele>171</ele>
						<time>2021-03-25T16:09:59Z</time>
					</trkpt>
					<trkpt lat="46.570840" lon="4.917190">
						<ele>172</ele>
						<time>2021-03-25T16:10:13Z</time>
					</trkpt>
					<trkpt lat="46.572570" lon="4.917310">
						<ele>173</ele>
						<time>2021-03-25T16:10:44Z</time>
					</trkpt>
					<trkpt lat="46.572940" lon="4.917390">
						<ele>172</ele>
						<time>2021-03-25T16:10:51Z</time>
					</trkpt>
					<trkpt lat="46.573040" lon="4.917410">
						<ele>172</ele>
						<time>2021-03-25T16:10:52Z</time>
					</trkpt>
					<trkpt lat="46.573200" lon="4.917420">
						<ele>172</ele>
						<time>2021-03-25T16:10:55Z</time>
					</trkpt>
					<trkpt lat="46.573290" lon="4.917460">
						<ele>172</ele>
						<time>2021-03-25T16:10:57Z</time>
					</trkpt>
					<trkpt lat="46.573860" lon="4.917780">
						<ele>171</ele>
						<time>2021-03-25T16:11:08Z</time>
					</trkpt>
					<trkpt lat="46.574080" lon="4.917990">
						<ele>171</ele>
						<time>2021-03-25T16:11:13Z</time>
					</trkpt>
					<trkpt lat="46.574960" lon="4.919300">
						<ele>171</ele>
						<time>2021-03-25T16:11:35Z</time>
					</trkpt>
					<trkpt lat="46.575170" lon="4.919670">
						<ele>172</ele>
						<time>2021-03-25T16:11:41Z</time>
					</trkpt>
					<trkpt lat="46.575360" lon="4.920110">
						<ele>172</ele>
						<time>2021-03-25T16:11:47Z</time>
					</trkpt>
					<trkpt lat="46.575550" lon="4.920410">
						<ele>172</ele>
						<time>2021-03-25T16:11:52Z</time>
					</trkpt>
					<trkpt lat="46.575790" lon="4.920740">
						<ele>172</ele>
						<time>2021-03-25T16:11:58Z</time>
					</trkpt>
					<trkpt lat="46.576040" lon="4.921030">
						<ele>173</ele>
						<time>2021-03-25T16:12:04Z</time>
					</trkpt>
					<trkpt lat="46.576590" lon="4.921390">
						<ele>174</ele>
						<time>2021-03-25T16:12:14Z</time>
					</trkpt>
					<trkpt lat="46.577370" lon="4.921890">
						<ele>174</ele>
						<time>2021-03-25T16:12:30Z</time>
					</trkpt>
					<trkpt lat="46.577720" lon="4.922100">
						<ele>174</ele>
						<time>2021-03-25T16:12:36Z</time>
					</trkpt>
					<trkpt lat="46.578170" lon="4.922390">
						<ele>175</ele>
						<time>2021-03-25T16:12:45Z</time>
					</trkpt>
					<trkpt lat="46.578520" lon="4.922580">
						<ele>174</ele>
						<time>2021-03-25T16:12:52Z</time>
					</trkpt>
					<trkpt lat="46.578670" lon="4.922630">
						<ele>174</ele>
						<time>2021-03-25T16:12:55Z</time>
					</trkpt>
					<trkpt lat="46.578830" lon="4.922710">
						<ele>173</ele>
						<time>2021-03-25T16:12:58Z</time>
					</trkpt>
					<trkpt lat="46.579560" lon="4.923240">
						<ele>171</ele>
						<time>2021-03-25T16:13:12Z</time>
					</trkpt>
					<trkpt lat="46.581560" lon="4.924530">
						<ele>173</ele>
						<time>2021-03-25T16:13:51Z</time>
					</trkpt>
					<trkpt lat="46.582700" lon="4.925250">
						<ele>175</ele>
						<time>2021-03-25T16:14:13Z</time>
					</trkpt>
					<trkpt lat="46.583400" lon="4.925620">
						<ele>176</ele>
						<time>2021-03-25T16:14:26Z</time>
					</trkpt>
					<trkpt lat="46.583730" lon="4.925860">
						<ele>175</ele>
						<time>2021-03-25T16:14:33Z</time>
					</trkpt>
					<trkpt lat="46.584070" lon="4.926180">
						<ele>175</ele>
						<time>2021-03-25T16:14:40Z</time>
					</trkpt>
					<trkpt lat="46.584400" lon="4.926530">
						<ele>174</ele>
						<time>2021-03-25T16:14:47Z</time>
					</trkpt>
					<trkpt lat="46.584590" lon="4.926710">
						<ele>175</ele>
						<time>2021-03-25T16:14:51Z</time>
					</trkpt>
					<trkpt lat="46.584770" lon="4.926840">
						<ele>175</ele>
						<time>2021-03-25T16:14:55Z</time>
					</trkpt>
					<trkpt lat="46.585480" lon="4.927330">
						<ele>176</ele>
						<time>2021-03-25T16:15:09Z</time>
					</trkpt>
					<trkpt lat="46.585710" lon="4.927470">
						<ele>176</ele>
						<time>2021-03-25T16:15:13Z</time>
					</trkpt>
					<trkpt lat="46.586150" lon="4.927760">
						<ele>176</ele>
						<time>2021-03-25T16:15:22Z</time>
					</trkpt>
					<trkpt lat="46.586530" lon="4.927980">
						<ele>177</ele>
						<time>2021-03-25T16:15:29Z</time>
					</trkpt>
					<trkpt lat="46.587070" lon="4.928360">
						<ele>178</ele>
						<time>2021-03-25T16:15:40Z</time>
					</trkpt>
					<trkpt lat="46.587760" lon="4.928940">
						<ele>180</ele>
						<time>2021-03-25T16:15:54Z</time>
					</trkpt>
					<trkpt lat="46.588220" lon="4.929300">
						<ele>181</ele>
						<time>2021-03-25T16:16:03Z</time>
					</trkpt>
					<trkpt lat="46.588790" lon="4.929820">
						<ele>181</ele>
						<time>2021-03-25T16:16:15Z</time>
					</trkpt>
					<trkpt lat="46.589410" lon="4.930450">
						<ele>179</ele>
						<time>2021-03-25T16:16:29Z</time>
					</trkpt>
					<trkpt lat="46.589560" lon="4.930610">
						<ele>179</ele>
						<time>2021-03-25T16:16:32Z</time>
					</trkpt>
					<trkpt lat="46.589750" lon="4.930810">
						<ele>178</ele>
						<time>2021-03-25T16:16:36Z</time>
					</trkpt>
					<trkpt lat="46.591150" lon="4.932490">
						<ele>178</ele>
						<time>2021-03-25T16:17:09Z</time>
					</trkpt>
					<trkpt lat="46.591800" lon="4.933240">
						<ele>179</ele>
						<time>2021-03-25T16:17:23Z</time>
					</trkpt>
					<trkpt lat="46.593430" lon="4.934790">
						<ele>175</ele>
						<time>2021-03-25T16:17:58Z</time>
					</trkpt>
					<trkpt lat="46.594820" lon="4.936140">
						<ele>176</ele>
						<time>2021-03-25T16:18:28Z</time>
					</trkpt>
					<trkpt lat="46.595040" lon="4.936450">
						<ele>176</ele>
						<time>2021-03-25T16:18:33Z</time>
					</trkpt>
					<trkpt lat="46.595190" lon="4.936720">
						<ele>175</ele>
						<time>2021-03-25T16:18:37Z</time>
					</trkpt>
					<trkpt lat="46.595770" lon="4.937900">
						<ele>174</ele>
						<time>2021-03-25T16:18:55Z</time>
					</trkpt>
					<trkpt lat="46.595970" lon="4.938420">
						<ele>173</ele>
						<time>2021-03-25T16:19:02Z</time>
					</trkpt>
					<trkpt lat="46.596090" lon="4.938690">
						<ele>173</ele>
						<time>2021-03-25T16:19:06Z</time>
					</trkpt>
					<trkpt lat="46.596200" lon="4.938950">
						<ele>173</ele>
						<time>2021-03-25T16:19:10Z</time>
					</trkpt>
					<trkpt lat="46.596340" lon="4.939220">
						<ele>173</ele>
						<time>2021-03-25T16:19:14Z</time>
					</trkpt>
					<trkpt lat="46.596440" lon="4.939380">
						<ele>173</ele>
						<time>2021-03-25T16:19:17Z</time>
					</trkpt>
					<trkpt lat="46.596670" lon="4.939580">
						<ele>173</ele>
						<time>2021-03-25T16:19:22Z</time>
					</trkpt>
					<trkpt lat="46.597290" lon="4.939830">
						<ele>173</ele>
						<time>2021-03-25T16:19:33Z</time>
					</trkpt>
					<trkpt lat="46.597440" lon="4.939880">
						<ele>173</ele>
						<time>2021-03-25T16:19:36Z</time>
					</trkpt>
					<trkpt lat="46.597660" lon="4.940010">
						<ele>173</ele>
						<time>2021-03-25T16:19:40Z</time>
					</trkpt>
					<trkpt lat="46.597880" lon="4.940200">
						<ele>173</ele>
						<time>2021-03-25T16:19:45Z</time>
					</trkpt>
					<trkpt lat="46.599410" lon="4.941650">
						<ele>174</ele>
						<time>2021-03-25T16:20:17Z</time>
					</trkpt>
					<trkpt lat="46.600190" lon="4.942350">
						<ele>173</ele>
						<time>2021-03-25T16:20:33Z</time>
					</trkpt>
					<trkpt lat="46.600590" lon="4.942650">
						<ele>174</ele>
						<time>2021-03-25T16:20:41Z</time>
					</trkpt>
					<trkpt lat="46.601090" lon="4.942960">
						<ele>174</ele>
						<time>2021-03-25T16:20:51Z</time>
					</trkpt>
					<trkpt lat="46.601370" lon="4.943190">
						<ele>173</ele>
						<time>2021-03-25T16:20:57Z</time>
					</trkpt>
					<trkpt lat="46.601570" lon="4.943390">
						<ele>173</ele>
						<time>2021-03-25T16:21:01Z</time>
					</trkpt>
					<trkpt lat="46.602160" lon="4.944140">
						<ele>173</ele>
						<time>2021-03-25T16:21:15Z</time>
					</trkpt>
					<trkpt lat="46.602290" lon="4.944350">
						<ele>172</ele>
						<time>2021-03-25T16:21:19Z</time>
					</trkpt>
					<trkpt lat="46.602420" lon="4.944610">
						<ele>171</ele>
						<time>2021-03-25T16:21:22Z</time>
					</trkpt>
					<trkpt lat="46.602690" lon="4.945230">
						<ele>172</ele>
						<time>2021-03-25T16:21:31Z</time>
					</trkpt>
					<trkpt lat="46.603070" lon="4.946050">
						<ele>173</ele>
						<time>2021-03-25T16:21:44Z</time>
					</trkpt>
					<trkpt lat="46.603530" lon="4.947100">
						<ele>173</ele>
						<time>2021-03-25T16:21:59Z</time>
					</trkpt>
					<trkpt lat="46.604150" lon="4.948490">
						<ele>174</ele>
						<time>2021-03-25T16:22:19Z</time>
					</trkpt>
					<trkpt lat="46.604530" lon="4.949360">
						<ele>175</ele>
						<time>2021-03-25T16:22:32Z</time>
					</trkpt>
					<trkpt lat="46.604700" lon="4.949740">
						<ele>175</ele>
						<time>2021-03-25T16:22:37Z</time>
					</trkpt>
					<trkpt lat="46.604790" lon="4.949900">
						<ele>175</ele>
						<time>2021-03-25T16:22:40Z</time>
					</trkpt>
					<trkpt lat="46.605050" lon="4.950240">
						<ele>175</ele>
						<time>2021-03-25T16:22:46Z</time>
					</trkpt>
					<trkpt lat="46.606130" lon="4.951470">
						<ele>175</ele>
						<time>2021-03-25T16:23:10Z</time>
					</trkpt>
					<trkpt lat="46.606880" lon="4.952330">
						<ele>175</ele>
						<time>2021-03-25T16:23:27Z</time>
					</trkpt>
					<trkpt lat="46.607950" lon="4.953390">
						<ele>176</ele>
						<time>2021-03-25T16:23:50Z</time>
					</trkpt>
					<trkpt lat="46.608190" lon="4.953620">
						<ele>176</ele>
						<time>2021-03-25T16:23:55Z</time>
					</trkpt>
					<trkpt lat="46.608270" lon="4.953680">
						<ele>176</ele>
						<time>2021-03-25T16:23:57Z</time>
					</trkpt>
					<trkpt lat="46.609040" lon="4.953940">
						<ele>176</ele>
						<time>2021-03-25T16:24:11Z</time>
					</trkpt>
					<trkpt lat="46.609850" lon="4.954340">
						<ele>174</ele>
						<time>2021-03-25T16:24:26Z</time>
					</trkpt>
					<trkpt lat="46.609970" lon="4.954380">
						<ele>173</ele>
						<time>2021-03-25T16:24:29Z</time>
					</trkpt>
					<trkpt lat="46.610110" lon="4.954390">
						<ele>173</ele>
						<time>2021-03-25T16:24:31Z</time>
					</trkpt>
					<trkpt lat="46.610280" lon="4.954360">
						<ele>173</ele>
						<time>2021-03-25T16:24:34Z</time>
					</trkpt>
					<trkpt lat="46.610650" lon="4.954250">
						<ele>173</ele>
						<time>2021-03-25T16:24:41Z</time>
					</trkpt>
					<trkpt lat="46.610790" lon="4.954200">
						<ele>173</ele>
						<time>2021-03-25T16:24:43Z</time>
					</trkpt>
					<trkpt lat="46.610920" lon="4.954180">
						<ele>173</ele>
						<time>2021-03-25T16:24:46Z</time>
					</trkpt>
					<trkpt lat="46.611050" lon="4.954200">
						<ele>173</ele>
						<time>2021-03-25T16:24:48Z</time>
					</trkpt>
					<trkpt lat="46.611310" lon="4.954350">
						<ele>173</ele>
						<time>2021-03-25T16:24:53Z</time>
					</trkpt>
					<trkpt lat="46.611500" lon="4.954520">
						<ele>173</ele>
						<time>2021-03-25T16:24:57Z</time>
					</trkpt>
					<trkpt lat="46.611700" lon="4.954730">
						<ele>174</ele>
						<time>2021-03-25T16:25:01Z</time>
					</trkpt>
					<trkpt lat="46.612040" lon="4.955200">
						<ele>174</ele>
						<time>2021-03-25T16:25:10Z</time>
					</trkpt>
					<trkpt lat="46.612180" lon="4.955490">
						<ele>174</ele>
						<time>2021-03-25T16:25:14Z</time>
					</trkpt>
					<trkpt lat="46.612770" lon="4.956910">
						<ele>175</ele>
						<time>2021-03-25T16:25:34Z</time>
					</trkpt>
					<trkpt lat="46.613310" lon="4.958650">
						<ele>176</ele>
						<time>2021-03-25T16:25:58Z</time>
					</trkpt>
					<trkpt lat="46.613400" lon="4.958840">
						<ele>176</ele>
						<time>2021-03-25T16:26:00Z</time>
					</trkpt>
					<trkpt lat="46.614160" lon="4.960080">
						<ele>176</ele>
						<time>2021-03-25T16:26:21Z</time>
					</trkpt>
					<trkpt lat="46.614370" lon="4.960460">
						<ele>175</ele>
						<time>2021-03-25T16:26:27Z</time>
					</trkpt>
					<trkpt lat="46.614450" lon="4.960640">
						<ele>175</ele>
						<time>2021-03-25T16:26:29Z</time>
					</trkpt>
					<trkpt lat="46.614510" lon="4.960800">
						<ele>174</ele>
						<time>2021-03-25T16:26:32Z</time>
					</trkpt>
					<trkpt lat="46.614600" lon="4.960920">
						<ele>175</ele>
						<time>2021-03-25T16:26:34Z</time>
					</trkpt>
					<trkpt lat="46.614730" lon="4.961050">
						<ele>175</ele>
						<time>2021-03-25T16:26:37Z</time>
					</trkpt>
					<trkpt lat="46.615220" lon="4.961270">
						<ele>175</ele>
						<time>2021-03-25T16:26:46Z</time>
					</trkpt>
					<trkpt lat="46.615840" lon="4.961580">
						<ele>175</ele>
						<time>2021-03-25T16:26:57Z</time>
					</trkpt>
					<trkpt lat="46.616140" lon="4.961770">
						<ele>176</ele>
						<time>2021-03-25T16:27:03Z</time>
					</trkpt>
					<trkpt lat="46.616460" lon="4.962010">
						<ele>176</ele>
						<time>2021-03-25T16:27:10Z</time>
					</trkpt>
					<trkpt lat="46.616760" lon="4.962240">
						<ele>176</ele>
						<time>2021-03-25T16:27:16Z</time>
					</trkpt>
					<trkpt lat="46.616790" lon="4.962270">
						<ele>176</ele>
						<time>2021-03-25T16:27:16Z</time>
					</trkpt>
					<trkpt lat="46.617600" lon="4.962920">
						<ele>178</ele>
						<time>2021-03-25T16:27:33Z</time>
					</trkpt>
					<trkpt lat="46.617790" lon="4.963030">
						<ele>178</ele>
						<time>2021-03-25T16:27:36Z</time>
					</trkpt>
					<trkpt lat="46.618060" lon="4.963100">
						<ele>178</ele>
						<time>2021-03-25T16:27:41Z</time>
					</trkpt>
					<trkpt lat="46.618270" lon="4.963140">
						<ele>178</ele>
						<time>2021-03-25T16:27:45Z</time>
					</trkpt>
					<trkpt lat="46.618540" lon="4.963180">
						<ele>178</ele>
						<time>2021-03-25T16:27:50Z</time>
					</trkpt>
					<trkpt lat="46.618800" lon="4.963200">
						<ele>178</ele>
						<time>2021-03-25T16:27:54Z</time>
					</trkpt>
					<trkpt lat="46.619180" lon="4.963130">
						<ele>178</ele>
						<time>2021-03-25T16:28:01Z</time>
					</trkpt>
					<trkpt lat="46.619350" lon="4.963130">
						<ele>178</ele>
						<time>2021-03-25T16:28:04Z</time>
					</trkpt>
					<trkpt lat="46.619500" lon="4.963170">
						<ele>178</ele>
						<time>2021-03-25T16:28:07Z</time>
					</trkpt>
					<trkpt lat="46.620140" lon="4.963550">
						<ele>178</ele>
						<time>2021-03-25T16:28:19Z</time>
					</trkpt>
					<trkpt lat="46.622670" lon="4.965140">
						<ele>180</ele>
						<time>2021-03-25T16:29:08Z</time>
					</trkpt>
					<trkpt lat="46.622930" lon="4.965270">
						<ele>180</ele>
						<time>2021-03-25T16:29:13Z</time>
					</trkpt>
					<trkpt lat="46.623130" lon="4.965310">
						<ele>180</ele>
						<time>2021-03-25T16:29:17Z</time>
					</trkpt>
					<trkpt lat="46.623290" lon="4.965300">
						<ele>180</ele>
						<time>2021-03-25T16:29:20Z</time>
					</trkpt>
					<trkpt lat="46.623420" lon="4.965260">
						<ele>180</ele>
						<time>2021-03-25T16:29:22Z</time>
					</trkpt>
					<trkpt lat="46.623580" lon="4.965170">
						<ele>180</ele>
						<time>2021-03-25T16:29:25Z</time>
					</trkpt>
					<trkpt lat="46.623760" lon="4.965040">
						<ele>181</ele>
						<time>2021-03-25T16:29:29Z</time>
					</trkpt>
					<trkpt lat="46.623900" lon="4.964900">
						<ele>180</ele>
						<time>2021-03-25T16:29:32Z</time>
					</trkpt>
					<trkpt lat="46.624280" lon="4.966490">
						<ele>184</ele>
						<time>2021-03-25T16:29:52Z</time>
					</trkpt>
					<trkpt lat="46.624440" lon="4.967380">
						<ele>187</ele>
						<time>2021-03-25T16:30:03Z</time>
					</trkpt>
					<trkpt lat="46.624490" lon="4.967600">
						<ele>187</ele>
						<time>2021-03-25T16:30:06Z</time>
					</trkpt>
					<trkpt lat="46.624550" lon="4.967710">
						<ele>188</ele>
						<time>2021-03-25T16:30:08Z</time>
					</trkpt>
					<trkpt lat="46.624610" lon="4.967750">
						<ele>188</ele>
						<time>2021-03-25T16:30:09Z</time>
					</trkpt>
					<trkpt lat="46.624800" lon="4.967770">
						<ele>188</ele>
						<time>2021-03-25T16:30:13Z</time>
					</trkpt>
					<trkpt lat="46.625440" lon="4.967750">
						<ele>190</ele>
						<time>2021-03-25T16:30:24Z</time>
					</trkpt>
					<trkpt lat="46.626000" lon="4.967780">
						<ele>191</ele>
						<time>2021-03-25T16:30:34Z</time>
					</trkpt>
					<trkpt lat="46.626550" lon="4.967850">
						<ele>189</ele>
						<time>2021-03-25T16:30:44Z</time>
					</trkpt>
					<trkpt lat="46.626950" lon="4.967860">
						<ele>190</ele>
						<time>2021-03-25T16:30:51Z</time>
					</trkpt>
					<trkpt lat="46.627550" lon="4.967780">
						<ele>192</ele>
						<time>2021-03-25T16:31:02Z</time>
					</trkpt>
					<trkpt lat="46.628940" lon="4.967520">
						<ele>194</ele>
						<time>2021-03-25T16:31:27Z</time>
					</trkpt>
					<trkpt lat="46.629150" lon="4.967510">
						<ele>195</ele>
						<time>2021-03-25T16:31:30Z</time>
					</trkpt>
					<trkpt lat="46.629360" lon="4.967530">
						<ele>196</ele>
						<time>2021-03-25T16:31:34Z</time>
					</trkpt>
					<trkpt lat="46.631090" lon="4.968060">
						<ele>198</ele>
						<time>2021-03-25T16:32:05Z</time>
					</trkpt>
					<trkpt lat="46.631310" lon="4.968150">
						<ele>198</ele>
						<time>2021-03-25T16:32:10Z</time>
					</trkpt>
					<trkpt lat="46.631550" lon="4.966340">
						<ele>199</ele>
						<time>2021-03-25T16:32:32Z</time>
					</trkpt>
					<trkpt lat="46.631610" lon="4.966020">
						<ele>199</ele>
						<time>2021-03-25T16:32:36Z</time>
					</trkpt>
					<trkpt lat="46.631860" lon="4.964960">
						<ele>200</ele>
						<time>2021-03-25T16:32:50Z</time>
					</trkpt>
					<trkpt lat="46.631890" lon="4.964310">
						<ele>199</ele>
						<time>2021-03-25T16:32:58Z</time>
					</trkpt>
					<trkpt lat="46.631860" lon="4.964960">
						<ele>200</ele>
						<time>2021-03-25T16:33:06Z</time>
					</trkpt>
					<trkpt lat="46.631610" lon="4.966020">
						<ele>199</ele>
						<time>2021-03-25T16:33:19Z</time>
					</trkpt>
					<trkpt lat="46.631550" lon="4.966340">
						<ele>199</ele>
						<time>2021-03-25T16:33:23Z</time>
					</trkpt>
					<trkpt lat="46.631290" lon="4.968270">
						<ele>198</ele>
						<time>2021-03-25T16:33:48Z</time>
					</trkpt>
					<trkpt lat="46.631480" lon="4.968340">
						<ele>199</ele>
						<time>2021-03-25T16:33:51Z</time>
					</trkpt>
					<trkpt lat="46.633440" lon="4.969380">
						<ele>202</ele>
						<time>2021-03-25T16:34:28Z</time>
					</trkpt>
					<trkpt lat="46.633570" lon="4.969410">
						<ele>202</ele>
						<time>2021-03-25T16:34:30Z</time>
					</trkpt>
					<trkpt lat="46.633300" lon="4.973230">
						<ele>206</ele>
						<time>2021-03-25T16:35:17Z</time>
					</trkpt>
					<trkpt lat="46.633300" lon="4.973680">
						<ele>206</ele>
						<time>2021-03-25T16:35:23Z</time>
					</trkpt>
					<trkpt lat="46.634610" lon="4.982950">
						<ele>210</ele>
						<time>2021-03-25T16:37:19Z</time>
					</trkpt>
					<trkpt lat="46.634660" lon="4.983520">
						<ele>210</ele>
						<time>2021-03-25T16:37:26Z</time>
					</trkpt>
					<trkpt lat="46.634690" lon="4.985100">
						<ele>208</ele>
						<time>2021-03-25T16:37:45Z</time>
					</trkpt>
					<trkpt lat="46.634690" lon="4.985910">
						<ele>207</ele>
						<time>2021-03-25T16:37:55Z</time>
					</trkpt>
					<trkpt lat="46.634730" lon="4.986960">
						<ele>207</ele>
						<time>2021-03-25T16:38:08Z</time>
					</trkpt>
					<trkpt lat="46.635170" lon="4.990870">
						<ele>211</ele>
						<time>2021-03-25T16:38:56Z</time>
					</trkpt>
					<trkpt lat="46.635510" lon="4.994710">
						<ele>212</ele>
						<time>2021-03-25T16:39:43Z</time>
					</trkpt>
					<trkpt lat="46.635510" lon="4.995020">
						<ele>212</ele>
						<time>2021-03-25T16:39:47Z</time>
					</trkpt>
					<trkpt lat="46.635500" lon="4.995360">
						<ele>213</ele>
						<time>2021-03-25T16:39:51Z</time>
					</trkpt>
					<trkpt lat="46.635350" lon="4.996320">
						<ele>214</ele>
						<time>2021-03-25T16:40:03Z</time>
					</trkpt>
					<trkpt lat="46.635080" lon="4.997860">
						<ele>214</ele>
						<time>2021-03-25T16:40:23Z</time>
					</trkpt>
					<trkpt lat="46.634900" lon="4.999040">
						<ele>213</ele>
						<time>2021-03-25T16:40:37Z</time>
					</trkpt>
					<trkpt lat="46.634820" lon="4.999640">
						<ele>214</ele>
						<time>2021-03-25T16:40:45Z</time>
					</trkpt>
					<trkpt lat="46.634810" lon="5.000190">
						<ele>214</ele>
						<time>2021-03-25T16:40:52Z</time>
					</trkpt>
					<trkpt lat="46.635200" lon="5.002780">
						<ele>214</ele>
						<time>2021-03-25T16:41:24Z</time>
					</trkpt>
					<trkpt lat="46.635440" lon="5.004160">
						<ele>212</ele>
						<time>2021-03-25T16:41:41Z</time>
					</trkpt>
					<trkpt lat="46.636260" lon="5.009340">
						<ele>210</ele>
						<time>2021-03-25T16:42:46Z</time>
					</trkpt>
					<trkpt lat="46.636400" lon="5.010100">
						<ele>213</ele>
						<time>2021-03-25T16:42:56Z</time>
					</trkpt>
					<trkpt lat="46.637920" lon="5.016070">
						<ele>218</ele>
						<time>2021-03-25T16:44:14Z</time>
					</trkpt>
					<trkpt lat="46.637960" lon="5.016280">
						<ele>217</ele>
						<time>2021-03-25T16:44:16Z</time>
					</trkpt>
					<trkpt lat="46.637970" lon="5.016490">
						<ele>217</ele>
						<time>2021-03-25T16:44:19Z</time>
					</trkpt>
					<trkpt lat="46.638030" lon="5.016720">
						<ele>216</ele>
						<time>2021-03-25T16:44:22Z</time>
					</trkpt>
					<trkpt lat="46.638250" lon="5.017830">
						<ele>219</ele>
						<time>2021-03-25T16:44:36Z</time>
					</trkpt>
					<trkpt lat="46.638870" lon="5.021520">
						<ele>214</ele>
						<time>2021-03-25T16:45:23Z</time>
					</trkpt>
					<trkpt lat="46.638950" lon="5.021860">
						<ele>214</ele>
						<time>2021-03-25T16:45:27Z</time>
					</trkpt>
					<trkpt lat="46.639060" lon="5.022200">
						<ele>215</ele>
						<time>2021-03-25T16:45:32Z</time>
					</trkpt>
					<trkpt lat="46.639880" lon="5.023550">
						<ele>216</ele>
						<time>2021-03-25T16:45:54Z</time>
					</trkpt>
					<trkpt lat="46.639970" lon="5.023760">
						<ele>216</ele>
						<time>2021-03-25T16:45:57Z</time>
					</trkpt>
					<trkpt lat="46.641110" lon="5.026990">
						<ele>211</ele>
						<time>2021-03-25T16:46:41Z</time>
					</trkpt>
					<trkpt lat="46.641350" lon="5.027160">
						<ele>212</ele>
						<time>2021-03-25T16:46:46Z</time>
					</trkpt>
					<trkpt lat="46.641490" lon="5.027230">
						<ele>212</ele>
						<time>2021-03-25T16:46:48Z</time>
					</trkpt>
					<trkpt lat="46.642500" lon="5.027610">
						<ele>214</ele>
						<time>2021-03-25T16:47:07Z</time>
					</trkpt>
					<trkpt lat="46.642660" lon="5.027700">
						<ele>213</ele>
						<time>2021-03-25T16:47:10Z</time>
					</trkpt>
					<trkpt lat="46.642790" lon="5.027800">
						<ele>213</ele>
						<time>2021-03-25T16:47:13Z</time>
					</trkpt>
					<trkpt lat="46.642980" lon="5.028000">
						<ele>213</ele>
						<time>2021-03-25T16:47:17Z</time>
					</trkpt>
					<trkpt lat="46.645420" lon="5.032480">
						<ele>214</ele>
						<time>2021-03-25T16:48:27Z</time>
					</trkpt>
					<trkpt lat="46.645690" lon="5.032940">
						<ele>214</ele>
						<time>2021-03-25T16:48:34Z</time>
					</trkpt>
					<trkpt lat="46.647890" lon="5.036180">
						<ele>211</ele>
						<time>2021-03-25T16:49:30Z</time>
					</trkpt>
					<trkpt lat="46.648030" lon="5.036350">
						<ele>210</ele>
						<time>2021-03-25T16:49:33Z</time>
					</trkpt>
					<trkpt lat="46.648120" lon="5.036440">
						<ele>210</ele>
						<time>2021-03-25T16:49:35Z</time>
					</trkpt>
					<trkpt lat="46.648320" lon="5.036570">
						<ele>210</ele>
						<time>2021-03-25T16:49:39Z</time>
					</trkpt>
					<trkpt lat="46.649720" lon="5.037020">
						<ele>210</ele>
						<time>2021-03-25T16:50:04Z</time>
					</trkpt>
					<trkpt lat="46.649990" lon="5.037160">
						<ele>210</ele>
						<time>2021-03-25T16:50:09Z</time>
					</trkpt>
					<trkpt lat="46.650220" lon="5.037400">
						<ele>210</ele>
						<time>2021-03-25T16:50:14Z</time>
					</trkpt>
					<trkpt lat="46.650670" lon="5.037970">
						<ele>208</ele>
						<time>2021-03-25T16:50:25Z</time>
					</trkpt>
					<trkpt lat="46.651480" lon="5.039020">
						<ele>208</ele>
						<time>2021-03-25T16:50:44Z</time>
					</trkpt>
					<trkpt lat="46.651620" lon="5.039270">
						<ele>208</ele>
						<time>2021-03-25T16:50:48Z</time>
					</trkpt>
					<trkpt lat="46.651710" lon="5.039570">
						<ele>207</ele>
						<time>2021-03-25T16:50:52Z</time>
					</trkpt>
					<trkpt lat="46.651930" lon="5.040560">
						<ele>207</ele>
						<time>2021-03-25T16:51:05Z</time>
					</trkpt>
					<trkpt lat="46.652090" lon="5.041420">
						<ele>207</ele>
						<time>2021-03-25T16:51:16Z</time>
					</trkpt>
					<trkpt lat="46.652110" lon="5.041680">
						<ele>207</ele>
						<time>2021-03-25T16:51:19Z</time>
					</trkpt>
					<trkpt lat="46.652120" lon="5.043090">
						<ele>207</ele>
						<time>2021-03-25T16:51:36Z</time>
					</trkpt>
					<trkpt lat="46.651820" lon="5.045530">
						<ele>208</ele>
						<time>2021-03-25T16:52:06Z</time>
					</trkpt>
					<trkpt lat="46.651820" lon="5.045710">
						<ele>208</ele>
						<time>2021-03-25T16:52:09Z</time>
					</trkpt>
					<trkpt lat="46.651850" lon="5.045900">
						<ele>208</ele>
						<time>2021-03-25T16:52:11Z</time>
					</trkpt>
					<trkpt lat="46.651920" lon="5.046120">
						<ele>209</ele>
						<time>2021-03-25T16:52:14Z</time>
					</trkpt>
					<trkpt lat="46.652380" lon="5.047390">
						<ele>210</ele>
						<time>2021-03-25T16:52:32Z</time>
					</trkpt>
					<trkpt lat="46.652570" lon="5.047860">
						<ele>209</ele>
						<time>2021-03-25T16:52:38Z</time>
					</trkpt>
					<trkpt lat="46.652650" lon="5.048000">
						<ele>209</ele>
						<time>2021-03-25T16:52:40Z</time>
					</trkpt>
					<trkpt lat="46.652760" lon="5.048140">
						<ele>208</ele>
						<time>2021-03-25T16:52:43Z</time>
					</trkpt>
					<trkpt lat="46.652890" lon="5.048270">
						<ele>208</ele>
						<time>2021-03-25T16:52:46Z</time>
					</trkpt>
					<trkpt lat="46.652990" lon="5.048330">
						<ele>208</ele>
						<time>2021-03-25T16:52:48Z</time>
					</trkpt>
					<trkpt lat="46.653660" lon="5.048620">
						<ele>208</ele>
						<time>2021-03-25T16:53:00Z</time>
					</trkpt>
					<trkpt lat="46.653910" lon="5.048790">
						<ele>207</ele>
						<time>2021-03-25T16:53:05Z</time>
					</trkpt>
					<trkpt lat="46.655340" lon="5.050170">
						<ele>206</ele>
						<time>2021-03-25T16:53:36Z</time>
					</trkpt>
					<trkpt lat="46.657360" lon="5.051600">
						<ele>199</ele>
						<time>2021-03-25T16:54:16Z</time>
					</trkpt>
					<trkpt lat="46.658130" lon="5.052170">
						<ele>194</ele>
						<time>2021-03-25T16:54:31Z</time>
					</trkpt>
					<trkpt lat="46.658600" lon="5.052640">
						<ele>194</ele>
						<time>2021-03-25T16:54:41Z</time>
					</trkpt>
					<trkpt lat="46.658990" lon="5.053090">
						<ele>197</ele>
						<time>2021-03-25T16:54:50Z</time>
					</trkpt>
					<trkpt lat="46.659250" lon="5.053470">
						<ele>201</ele>
						<time>2021-03-25T16:54:57Z</time>
					</trkpt>
					<trkpt lat="46.661180" lon="5.056640">
						<ele>204</ele>
						<time>2021-03-25T16:55:48Z</time>
					</trkpt>
					<trkpt lat="46.661330" lon="5.057040">
						<ele>205</ele>
						<time>2021-03-25T16:55:54Z</time>
					</trkpt>
					<trkpt lat="46.661910" lon="5.059560">
						<ele>206</ele>
						<time>2021-03-25T16:56:26Z</time>
					</trkpt>
					<trkpt lat="46.662030" lon="5.059940">
						<ele>206</ele>
						<time>2021-03-25T16:56:31Z</time>
					</trkpt>
					<trkpt lat="46.662110" lon="5.060100">
						<ele>205</ele>
						<time>2021-03-25T16:56:34Z</time>
					</trkpt>
					<trkpt lat="46.662210" lon="5.060270">
						<ele>205</ele>
						<time>2021-03-25T16:56:37Z</time>
					</trkpt>
					<trkpt lat="46.662430" lon="5.060490">
						<ele>206</ele>
						<time>2021-03-25T16:56:41Z</time>
					</trkpt>
					<trkpt lat="46.662540" lon="5.060570">
						<ele>206</ele>
						<time>2021-03-25T16:56:43Z</time>
					</trkpt>
					<trkpt lat="46.664910" lon="5.061940">
						<ele>204</ele>
						<time>2021-03-25T16:57:29Z</time>
					</trkpt>
					<trkpt lat="46.665110" lon="5.062030">
						<ele>204</ele>
						<time>2021-03-25T16:57:33Z</time>
					</trkpt>
					<trkpt lat="46.665110" lon="5.062160">
						<ele>204</ele>
						<time>2021-03-25T16:57:34Z</time>
					</trkpt>
					<trkpt lat="46.665160" lon="5.062220">
						<ele>204</ele>
						<time>2021-03-25T16:57:35Z</time>
					</trkpt>
					<trkpt lat="46.665020" lon="5.062560">
						<ele>203</ele>
						<time>2021-03-25T16:57:40Z</time>
					</trkpt>
					<trkpt lat="46.665160" lon="5.062220">
						<ele>204</ele>
						<time>2021-03-25T16:57:45Z</time>
					</trkpt>
					<trkpt lat="46.665190" lon="5.062230">
						<ele>204</ele>
						<time>2021-03-25T16:57:46Z</time>
					</trkpt>
					<trkpt lat="46.665260" lon="5.062170">
						<ele>205</ele>
						<time>2021-03-25T16:57:47Z</time>
					</trkpt>
					<trkpt lat="46.665330" lon="5.062250">
						<ele>205</ele>
						<time>2021-03-25T16:57:49Z</time>
					</trkpt>
					<trkpt lat="46.665450" lon="5.062460">
						<ele>205</ele>
						<time>2021-03-25T16:57:52Z</time>
					</trkpt>
					<trkpt lat="46.665500" lon="5.062610">
						<ele>205</ele>
						<time>2021-03-25T16:57:54Z</time>
					</trkpt>
					<trkpt lat="46.666070" lon="5.065070">
						<ele>207</ele>
						<time>2021-03-25T16:58:26Z</time>
					</trkpt>
					<trkpt lat="46.666200" lon="5.065740">
						<ele>207</ele>
						<time>2021-03-25T16:58:34Z</time>
					</trkpt>
					<trkpt lat="46.666600" lon="5.070040">
						<ele>204</ele>
						<time>2021-03-25T16:59:27Z</time>
					</trkpt>
					<trkpt lat="46.666620" lon="5.070510">
						<ele>203</ele>
						<time>2021-03-25T16:59:33Z</time>
					</trkpt>
					<trkpt lat="46.666580" lon="5.072320">
						<ele>201</ele>
						<time>2021-03-25T16:59:55Z</time>
					</trkpt>
					<trkpt lat="46.666590" lon="5.072510">
						<ele>201</ele>
						<time>2021-03-25T16:59:57Z</time>
					</trkpt>
					<trkpt lat="46.666690" lon="5.072900">
						<ele>201</ele>
						<time>2021-03-25T17:00:02Z</time>
					</trkpt>
					<trkpt lat="46.667930" lon="5.075850">
						<ele>206</ele>
						<time>2021-03-25T17:00:45Z</time>
					</trkpt>
					<trkpt lat="46.667980" lon="5.076190">
						<ele>205</ele>
						<time>2021-03-25T17:00:49Z</time>
					</trkpt>
					<trkpt lat="46.667990" lon="5.076450">
						<ele>205</ele>
						<time>2021-03-25T17:00:52Z</time>
					</trkpt>
					<trkpt lat="46.667750" lon="5.082700">
						<ele>194</ele>
						<time>2021-03-25T17:02:08Z</time>
					</trkpt>
					<trkpt lat="46.667750" lon="5.082910">
						<ele>193</ele>
						<time>2021-03-25T17:02:11Z</time>
					</trkpt>
					<trkpt lat="46.667780" lon="5.083080">
						<ele>192</ele>
						<time>2021-03-25T17:02:13Z</time>
					</trkpt>
					<trkpt lat="46.667830" lon="5.083230">
						<ele>191</ele>
						<time>2021-03-25T17:02:15Z</time>
					</trkpt>
					<trkpt lat="46.667900" lon="5.083370">
						<ele>190</ele>
						<time>2021-03-25T17:02:17Z</time>
					</trkpt>
					<trkpt lat="46.668030" lon="5.083560">
						<ele>191</ele>
						<time>2021-03-25T17:02:21Z</time>
					</trkpt>
					<trkpt lat="46.669850" lon="5.085820">
						<ele>203</ele>
						<time>2021-03-25T17:03:03Z</time>
					</trkpt>
					<trkpt lat="46.674940" lon="5.092500">
						<ele>202</ele>
						<time>2021-03-25T17:05:05Z</time>
					</trkpt>
					<trkpt lat="46.675260" lon="5.092850">
						<ele>200</ele>
						<time>2021-03-25T17:05:12Z</time>
					</trkpt>
					<trkpt lat="46.676670" lon="5.094140">
						<ele>194</ele>
						<time>2021-03-25T17:05:42Z</time>
					</trkpt>
					<trkpt lat="46.676790" lon="5.094270">
						<ele>193</ele>
						<time>2021-03-25T17:05:44Z</time>
					</trkpt>
					<trkpt lat="46.676990" lon="5.094570">
						<ele>192</ele>
						<time>2021-03-25T17:05:50Z</time>
					</trkpt>
					<trkpt lat="46.677130" lon="5.094880">
						<ele>191</ele>
						<time>2021-03-25T17:05:54Z</time>
					</trkpt>
					<trkpt lat="46.677410" lon="5.095670">
						<ele>191</ele>
						<time>2021-03-25T17:06:05Z</time>
					</trkpt>
					<trkpt lat="46.677690" lon="5.096390">
						<ele>192</ele>
						<time>2021-03-25T17:06:15Z</time>
					</trkpt>
					<trkpt lat="46.677770" lon="5.096630">
						<ele>193</ele>
						<time>2021-03-25T17:06:18Z</time>
					</trkpt>
					<trkpt lat="46.677800" lon="5.096800">
						<ele>193</ele>
						<time>2021-03-25T17:06:20Z</time>
					</trkpt>
					<trkpt lat="46.677810" lon="5.096970">
						<ele>194</ele>
						<time>2021-03-25T17:06:23Z</time>
					</trkpt>
					<trkpt lat="46.677760" lon="5.097730">
						<ele>195</ele>
						<time>2021-03-25T17:06:32Z</time>
					</trkpt>
					<trkpt lat="46.677760" lon="5.097920">
						<ele>195</ele>
						<time>2021-03-25T17:06:34Z</time>
					</trkpt>
					<trkpt lat="46.677790" lon="5.098110">
						<ele>196</ele>
						<time>2021-03-25T17:06:37Z</time>
					</trkpt>
					<trkpt lat="46.677930" lon="5.098620">
						<ele>198</ele>
						<time>2021-03-25T17:06:43Z</time>
					</trkpt>
					<trkpt lat="46.677960" lon="5.098800">
						<ele>198</ele>
						<time>2021-03-25T17:06:46Z</time>
					</trkpt>
					<trkpt lat="46.677990" lon="5.099340">
						<ele>199</ele>
						<time>2021-03-25T17:06:52Z</time>
					</trkpt>
					<trkpt lat="46.678020" lon="5.099490">
						<ele>198</ele>
						<time>2021-03-25T17:06:54Z</time>
					</trkpt>
					<trkpt lat="46.678060" lon="5.099600">
						<ele>198</ele>
						<time>2021-03-25T17:06:56Z</time>
					</trkpt>
					<trkpt lat="46.678140" lon="5.099720">
						<ele>199</ele>
						<time>2021-03-25T17:06:58Z</time>
					</trkpt>
					<trkpt lat="46.678230" lon="5.099820">
						<ele>199</ele>
						<time>2021-03-25T17:07:00Z</time>
					</trkpt>
					<trkpt lat="46.679340" lon="5.100710">
						<ele>199</ele>
						<time>2021-03-25T17:07:22Z</time>
					</trkpt>
					<trkpt lat="46.679690" lon="5.101010">
						<ele>198</ele>
						<time>2021-03-25T17:07:29Z</time>
					</trkpt>
					<trkpt lat="46.679880" lon="5.101240">
						<ele>197</ele>
						<time>2021-03-25T17:07:34Z</time>
					</trkpt>
					<trkpt lat="46.680310" lon="5.102180">
						<ele>195</ele>
						<time>2021-03-25T17:07:48Z</time>
					</trkpt>
					<trkpt lat="46.680410" lon="5.102430">
						<ele>195</ele>
						<time>2021-03-25T17:07:51Z</time>
					</trkpt>
					<trkpt lat="46.680470" lon="5.102830">
						<ele>195</ele>
						<time>2021-03-25T17:07:56Z</time>
					</trkpt>
					<trkpt lat="46.680590" lon="5.105100">
						<ele>192</ele>
						<time>2021-03-25T17:08:24Z</time>
					</trkpt>
					<trkpt lat="46.680590" lon="5.105620">
						<ele>192</ele>
						<time>2021-03-25T17:08:30Z</time>
					</trkpt>
					<trkpt lat="46.680550" lon="5.105820">
						<ele>192</ele>
						<time>2021-03-25T17:08:33Z</time>
					</trkpt>
					<trkpt lat="46.680200" lon="5.106830">
						<ele>195</ele>
						<time>2021-03-25T17:08:47Z</time>
					</trkpt>
					<trkpt lat="46.680080" lon="5.107240">
						<ele>196</ele>
						<time>2021-03-25T17:08:52Z</time>
					</trkpt>
					<trkpt lat="46.680030" lon="5.107350">
						<ele>197</ele>
						<time>2021-03-25T17:08:54Z</time>
					</trkpt>
					<trkpt lat="46.679940" lon="5.107440">
						<ele>197</ele>
						<time>2021-03-25T17:08:56Z</time>
					</trkpt>
					<trkpt lat="46.679820" lon="5.107490">
						<ele>198</ele>
						<time>2021-03-25T17:08:58Z</time>
					</trkpt>
					<trkpt lat="46.679520" lon="5.107470">
						<ele>200</ele>
						<time>2021-03-25T17:09:03Z</time>
					</trkpt>
					<trkpt lat="46.679390" lon="5.107520">
						<ele>201</ele>
						<time>2021-03-25T17:09:06Z</time>
					</trkpt>
					<trkpt lat="46.679350" lon="5.107580">
						<ele>201</ele>
						<time>2021-03-25T17:09:07Z</time>
					</trkpt>
					<trkpt lat="46.679300" lon="5.107730">
						<ele>202</ele>
						<time>2021-03-25T17:09:09Z</time>
					</trkpt>
					<trkpt lat="46.679300" lon="5.108030">
						<ele>202</ele>
						<time>2021-03-25T17:09:12Z</time>
					</trkpt>
					<trkpt lat="46.679280" lon="5.108340">
						<ele>203</ele>
						<time>2021-03-25T17:09:16Z</time>
					</trkpt>
					<trkpt lat="46.679250" lon="5.108430">
						<ele>204</ele>
						<time>2021-03-25T17:09:17Z</time>
					</trkpt>
					<trkpt lat="46.678930" lon="5.109150">
						<ele>206</ele>
						<time>2021-03-25T17:09:28Z</time>
					</trkpt>
					<trkpt lat="46.678710" lon="5.109710">
						<ele>206</ele>
						<time>2021-03-25T17:09:36Z</time>
					</trkpt>
					<trkpt lat="46.678340" lon="5.110780">
						<ele>206</ele>
						<time>2021-03-25T17:09:50Z</time>
					</trkpt>
					<trkpt lat="46.678370" lon="5.110950">
						<ele>206</ele>
						<time>2021-03-25T17:09:52Z</time>
					</trkpt>
					<trkpt lat="46.678430" lon="5.111100">
						<ele>205</ele>
						<time>2021-03-25T17:09:55Z</time>
					</trkpt>
					<trkpt lat="46.678500" lon="5.111210">
						<ele>205</ele>
						<time>2021-03-25T17:09:56Z</time>
					</trkpt>
					<trkpt lat="46.678630" lon="5.111320">
						<ele>205</ele>
						<time>2021-03-25T17:09:59Z</time>
					</trkpt>
					<trkpt lat="46.679530" lon="5.112300">
						<ele>199</ele>
						<time>2021-03-25T17:10:19Z</time>
					</trkpt>
					<trkpt lat="46.681920" lon="5.114940">
						<ele>204</ele>
						<time>2021-03-25T17:11:12Z</time>
					</trkpt>
					<trkpt lat="46.682000" lon="5.114990">
						<ele>204</ele>
						<time>2021-03-25T17:11:14Z</time>
					</trkpt>
					<trkpt lat="46.682030" lon="5.115110">
						<ele>205</ele>
						<time>2021-03-25T17:11:15Z</time>
					</trkpt>
					<trkpt lat="46.682170" lon="5.115340">
						<ele>205</ele>
						<time>2021-03-25T17:11:19Z</time>
					</trkpt>
					<trkpt lat="46.682160" lon="5.115430">
						<ele>205</ele>
						<time>2021-03-25T17:11:20Z</time>
					</trkpt>
					<trkpt lat="46.681810" lon="5.116260">
						<ele>205</ele>
						<time>2021-03-25T17:11:32Z</time>
					</trkpt>
					<trkpt lat="46.681740" lon="5.116530">
						<ele>205</ele>
						<time>2021-03-25T17:11:36Z</time>
					</trkpt>
					<trkpt lat="46.681470" lon="5.118440">
						<ele>206</ele>
						<time>2021-03-25T17:12:00Z</time>
					</trkpt>
					<trkpt lat="46.681490" lon="5.118620">
						<ele>206</ele>
						<time>2021-03-25T17:12:02Z</time>
					</trkpt>
					<trkpt lat="46.681520" lon="5.118770">
						<ele>206</ele>
						<time>2021-03-25T17:12:04Z</time>
					</trkpt>
					<trkpt lat="46.682030" lon="5.119610">
						<ele>205</ele>
						<time>2021-03-25T17:12:17Z</time>
					</trkpt>
					<trkpt lat="46.682160" lon="5.119910">
						<ele>205</ele>
						<time>2021-03-25T17:12:22Z</time>
					</trkpt>
					<trkpt lat="46.682190" lon="5.120070">
						<ele>205</ele>
						<time>2021-03-25T17:12:24Z</time>
					</trkpt>
					<trkpt lat="46.682210" lon="5.120350">
						<ele>206</ele>
						<time>2021-03-25T17:12:27Z</time>
					</trkpt>
					<trkpt lat="46.682170" lon="5.120640">
						<ele>206</ele>
						<time>2021-03-25T17:12:31Z</time>
					</trkpt>
					<trkpt lat="46.682060" lon="5.121220">
						<ele>206</ele>
						<time>2021-03-25T17:12:38Z</time>
					</trkpt>
					<trkpt lat="46.681860" lon="5.122010">
						<ele>206</ele>
						<time>2021-03-25T17:12:48Z</time>
					</trkpt>
					<trkpt lat="46.681720" lon="5.122380">
						<ele>205</ele>
						<time>2021-03-25T17:12:54Z</time>
					</trkpt>
					<trkpt lat="46.681360" lon="5.123160">
						<ele>204</ele>
						<time>2021-03-25T17:13:05Z</time>
					</trkpt>
					<trkpt lat="46.680850" lon="5.123780">
						<ele>204</ele>
						<time>2021-03-25T17:13:17Z</time>
					</trkpt>
					<trkpt lat="46.680780" lon="5.123910">
						<ele>204</ele>
						<time>2021-03-25T17:13:19Z</time>
					</trkpt>
					<trkpt lat="46.680660" lon="5.124340">
						<ele>204</ele>
						<time>2021-03-25T17:13:25Z</time>
					</trkpt>
					<trkpt lat="46.680670" lon="5.124560">
						<ele>205</ele>
						<time>2021-03-25T17:13:27Z</time>
					</trkpt>
					<trkpt lat="46.680720" lon="5.124780">
						<ele>205</ele>
						<time>2021-03-25T17:13:30Z</time>
					</trkpt>
					<trkpt lat="46.680890" lon="5.125180">
						<ele>205</ele>
						<time>2021-03-25T17:13:36Z</time>
					</trkpt>
					<trkpt lat="46.681080" lon="5.125580">
						<ele>205</ele>
						<time>2021-03-25T17:13:42Z</time>
					</trkpt>
					<trkpt lat="46.681290" lon="5.125880">
						<ele>205</ele>
						<time>2021-03-25T17:13:47Z</time>
					</trkpt>
					<trkpt lat="46.681340" lon="5.126000">
						<ele>205</ele>
						<time>2021-03-25T17:13:49Z</time>
					</trkpt>
					<trkpt lat="46.681370" lon="5.126110">
						<ele>205</ele>
						<time>2021-03-25T17:13:50Z</time>
					</trkpt>
					<trkpt lat="46.681360" lon="5.126290">
						<ele>205</ele>
						<time>2021-03-25T17:13:52Z</time>
					</trkpt>
					<trkpt lat="46.681300" lon="5.126490">
						<ele>205</ele>
						<time>2021-03-25T17:13:55Z</time>
					</trkpt>
					<trkpt lat="46.681040" lon="5.126970">
						<ele>205</ele>
						<time>2021-03-25T17:14:02Z</time>
					</trkpt>
					<trkpt lat="46.680550" lon="5.127320">
						<ele>206</ele>
						<time>2021-03-25T17:14:12Z</time>
					</trkpt>
					<trkpt lat="46.680410" lon="5.127660">
						<ele>206</ele>
						<time>2021-03-25T17:14:17Z</time>
					</trkpt>
					<trkpt lat="46.680380" lon="5.127830">
						<ele>206</ele>
						<time>2021-03-25T17:14:19Z</time>
					</trkpt>
					<trkpt lat="46.680360" lon="5.128160">
						<ele>206</ele>
						<time>2021-03-25T17:14:23Z</time>
					</trkpt>
					<trkpt lat="46.680360" lon="5.129160">
						<ele>206</ele>
						<time>2021-03-25T17:14:35Z</time>
					</trkpt>
					<trkpt lat="46.680380" lon="5.129460">
						<ele>206</ele>
						<time>2021-03-25T17:14:39Z</time>
					</trkpt>
					<trkpt lat="46.680490" lon="5.130200">
						<ele>205</ele>
						<time>2021-03-25T17:14:48Z</time>
					</trkpt>
					<trkpt lat="46.680500" lon="5.130360">
						<ele>205</ele>
						<time>2021-03-25T17:14:50Z</time>
					</trkpt>
					<trkpt lat="46.680490" lon="5.130460">
						<ele>204</ele>
						<time>2021-03-25T17:14:52Z</time>
					</trkpt>
					<trkpt lat="46.680450" lon="5.130570">
						<ele>204</ele>
						<time>2021-03-25T17:14:53Z</time>
					</trkpt>
					<trkpt lat="46.680360" lon="5.130680">
						<ele>205</ele>
						<time>2021-03-25T17:14:55Z</time>
					</trkpt>
					<trkpt lat="46.680060" lon="5.130920">
						<ele>206</ele>
						<time>2021-03-25T17:15:01Z</time>
					</trkpt>
					<trkpt lat="46.679890" lon="5.131090">
						<ele>206</ele>
						<time>2021-03-25T17:15:05Z</time>
					</trkpt>
					<trkpt lat="46.679810" lon="5.131220">
						<ele>206</ele>
						<time>2021-03-25T17:15:07Z</time>
					</trkpt>
					<trkpt lat="46.679750" lon="5.131340">
						<ele>205</ele>
						<time>2021-03-25T17:15:09Z</time>
					</trkpt>
					<trkpt lat="46.679650" lon="5.131780">
						<ele>205</ele>
						<time>2021-03-25T17:15:15Z</time>
					</trkpt>
					<trkpt lat="46.679530" lon="5.132580">
						<ele>206</ele>
						<time>2021-03-25T17:15:25Z</time>
					</trkpt>
					<trkpt lat="46.679540" lon="5.132710">
						<ele>206</ele>
						<time>2021-03-25T17:15:26Z</time>
					</trkpt>
					<trkpt lat="46.679590" lon="5.132910">
						<ele>205</ele>
						<time>2021-03-25T17:15:29Z</time>
					</trkpt>
					<trkpt lat="46.679690" lon="5.133160">
						<ele>206</ele>
						<time>2021-03-25T17:15:32Z</time>
					</trkpt>
					<trkpt lat="46.679800" lon="5.133370">
						<ele>206</ele>
						<time>2021-03-25T17:15:35Z</time>
					</trkpt>
					<trkpt lat="46.680090" lon="5.133790">
						<ele>207</ele>
						<time>2021-03-25T17:15:43Z</time>
					</trkpt>
					<trkpt lat="46.679810" lon="5.134290">
						<ele>207</ele>
						<time>2021-03-25T17:15:51Z</time>
					</trkpt>
					<trkpt lat="46.679680" lon="5.134390">
						<ele>207</ele>
						<time>2021-03-25T17:15:53Z</time>
					</trkpt>
					<trkpt lat="46.679180" lon="5.134440">
						<ele>206</ele>
						<time>2021-03-25T17:16:02Z</time>
					</trkpt>
					<trkpt lat="46.678750" lon="5.134570">
						<ele>207</ele>
						<time>2021-03-25T17:16:10Z</time>
					</trkpt>
					<trkpt lat="46.678420" lon="5.134630">
						<ele>206</ele>
						<time>2021-03-25T17:16:16Z</time>
					</trkpt>
					<trkpt lat="46.678350" lon="5.134660">
						<ele>206</ele>
						<time>2021-03-25T17:16:17Z</time>
					</trkpt>
					<trkpt lat="46.678300" lon="5.134760">
						<ele>206</ele>
						<time>2021-03-25T17:16:19Z</time>
					</trkpt>
					<trkpt lat="46.677990" lon="5.135650">
						<ele>206</ele>
						<time>2021-03-25T17:16:31Z</time>
					</trkpt>
					<trkpt lat="46.677890" lon="5.136120">
						<ele>205</ele>
						<time>2021-03-25T17:16:37Z</time>
					</trkpt>
					<trkpt lat="46.677870" lon="5.136330">
						<ele>205</ele>
						<time>2021-03-25T17:16:39Z</time>
					</trkpt>
					<trkpt lat="46.677820" lon="5.136530">
						<ele>205</ele>
						<time>2021-03-25T17:16:42Z</time>
					</trkpt>
					<trkpt lat="46.677690" lon="5.136780">
						<ele>205</ele>
						<time>2021-03-25T17:16:46Z</time>
					</trkpt>
					<trkpt lat="46.677560" lon="5.136990">
						<ele>205</ele>
						<time>2021-03-25T17:16:49Z</time>
					</trkpt>
					<trkpt lat="46.677400" lon="5.137190">
						<ele>205</ele>
						<time>2021-03-25T17:16:53Z</time>
					</trkpt>
					<trkpt lat="46.677080" lon="5.137490">
						<ele>205</ele>
						<time>2021-03-25T17:17:00Z</time>
					</trkpt>
					<trkpt lat="46.676820" lon="5.137640">
						<ele>205</ele>
						<time>2021-03-25T17:17:05Z</time>
					</trkpt>
					<trkpt lat="46.674600" lon="5.138700">
						<ele>206</ele>
						<time>2021-03-25T17:17:46Z</time>
					</trkpt>
					<trkpt lat="46.671630" lon="5.140170">
						<ele>207</ele>
						<time>2021-03-25T17:18:42Z</time>
					</trkpt>
					<trkpt lat="46.671560" lon="5.140220">
						<ele>207</ele>
						<time>2021-03-25T17:18:44Z</time>
					</trkpt>
					<trkpt lat="46.671430" lon="5.140410">
						<ele>207</ele>
						<time>2021-03-25T17:18:47Z</time>
					</trkpt>
					<trkpt lat="46.671330" lon="5.140730">
						<ele>207</ele>
						<time>2021-03-25T17:18:51Z</time>
					</trkpt>
					<trkpt lat="46.671160" lon="5.141080">
						<ele>207</ele>
						<time>2021-03-25T17:18:56Z</time>
					</trkpt>
					<trkpt lat="46.670950" lon="5.141360">
						<ele>207</ele>
						<time>2021-03-25T17:19:01Z</time>
					</trkpt>
					<trkpt lat="46.670560" lon="5.141820">
						<ele>207</ele>
						<time>2021-03-25T17:19:10Z</time>
					</trkpt>
					<trkpt lat="46.670380" lon="5.141960">
						<ele>206</ele>
						<time>2021-03-25T17:19:14Z</time>
					</trkpt>
					<trkpt lat="46.670410" lon="5.141710">
						<ele>206</ele>
						<time>2021-03-25T17:19:17Z</time>
					</trkpt>
					<trkpt lat="46.670430" lon="5.141400">
						<ele>205</ele>
						<time>2021-03-25T17:19:21Z</time>
					</trkpt>
					<trkpt lat="46.670400" lon="5.141210">
						<ele>205</ele>
						<time>2021-03-25T17:19:23Z</time>
					</trkpt>
					<trkpt lat="46.670350" lon="5.141110">
						<ele>204</ele>
						<time>2021-03-25T17:19:25Z</time>
					</trkpt>
					<trkpt lat="46.668850" lon="5.142380">
						<ele>202</ele>
						<time>2021-03-25T17:19:56Z</time>
					</trkpt>
					<trkpt lat="46.668240" lon="5.143100">
						<ele>202</ele>
						<time>2021-03-25T17:20:10Z</time>
					</trkpt>
					<trkpt lat="46.667300" lon="5.144830">
						<ele>204</ele>
						<time>2021-03-25T17:20:37Z</time>
					</trkpt>
					<trkpt lat="46.666540" lon="5.146020">
						<ele>199</ele>
						<time>2021-03-25T17:20:56Z</time>
					</trkpt>
					<trkpt lat="46.665210" lon="5.148050">
						<ele>196</ele>
						<time>2021-03-25T17:21:31Z</time>
					</trkpt>
					<trkpt lat="46.663790" lon="5.150250">
						<ele>198</ele>
						<time>2021-03-25T17:22:08Z</time>
					</trkpt>
					<trkpt lat="46.663210" lon="5.151040">
						<ele>194</ele>
						<time>2021-03-25T17:22:22Z</time>
					</trkpt>
					<trkpt lat="46.662760" lon="5.151620">
						<ele>190</ele>
						<time>2021-03-25T17:22:32Z</time>
					</trkpt>
					<trkpt lat="46.662330" lon="5.152020">
						<ele>189</ele>
						<time>2021-03-25T17:22:41Z</time>
					</trkpt>
					<trkpt lat="46.661430" lon="5.152520">
						<ele>190</ele>
						<time>2021-03-25T17:22:59Z</time>
					</trkpt>
					<trkpt lat="46.660920" lon="5.152730">
						<ele>191</ele>
						<time>2021-03-25T17:23:08Z</time>
					</trkpt>
					<trkpt lat="46.660050" lon="5.152910">
						<ele>191</ele>
						<time>2021-03-25T17:23:24Z</time>
					</trkpt>
					<trkpt lat="46.659120" lon="5.153040">
						<ele>188</ele>
						<time>2021-03-25T17:23:40Z</time>
					</trkpt>
					<trkpt lat="46.657850" lon="5.153630">
						<ele>187</ele>
						<time>2021-03-25T17:24:04Z</time>
					</trkpt>
					<trkpt lat="46.657050" lon="5.154030">
						<ele>187</ele>
						<time>2021-03-25T17:24:19Z</time>
					</trkpt>
					<trkpt lat="46.656400" lon="5.154320">
						<ele>188</ele>
						<time>2021-03-25T17:24:31Z</time>
					</trkpt>
					<trkpt lat="46.652970" lon="5.156500">
						<ele>183</ele>
						<time>2021-03-25T17:25:38Z</time>
					</trkpt>
					<trkpt lat="46.652340" lon="5.156940">
						<ele>182</ele>
						<time>2021-03-25T17:25:50Z</time>
					</trkpt>
					<trkpt lat="46.652030" lon="5.157210">
						<ele>182</ele>
						<time>2021-03-25T17:25:57Z</time>
					</trkpt>
					<trkpt lat="46.651640" lon="5.157670">
						<ele>181</ele>
						<time>2021-03-25T17:26:06Z</time>
					</trkpt>
					<trkpt lat="46.651000" lon="5.158680">
						<ele>180</ele>
						<time>2021-03-25T17:26:22Z</time>
					</trkpt>
					<trkpt lat="46.650730" lon="5.159320">
						<ele>180</ele>
						<time>2021-03-25T17:26:32Z</time>
					</trkpt>
					<trkpt lat="46.650110" lon="5.161040">
						<ele>180</ele>
						<time>2021-03-25T17:26:55Z</time>
					</trkpt>
					<trkpt lat="46.649470" lon="5.162900">
						<ele>180</ele>
						<time>2021-03-25T17:27:21Z</time>
					</trkpt>
					<trkpt lat="46.648450" lon="5.165780">
						<ele>181</ele>
						<time>2021-03-25T17:28:00Z</time>
					</trkpt>
					<trkpt lat="46.647970" lon="5.166900">
						<ele>181</ele>
						<time>2021-03-25T17:28:16Z</time>
					</trkpt>
					<trkpt lat="46.647970" lon="5.166970">
						<ele>181</ele>
						<time>2021-03-25T17:28:17Z</time>
					</trkpt>
					<trkpt lat="46.647950" lon="5.166960">
						<ele>181</ele>
						<time>2021-03-25T17:28:18Z</time>
					</trkpt>
					<trkpt lat="46.647870" lon="5.166970">
						<ele>181</ele>
						<time>2021-03-25T17:28:19Z</time>
					</trkpt>
					<trkpt lat="46.647770" lon="5.167370">
						<ele>182</ele>
						<time>2021-03-25T17:28:24Z</time>
					</trkpt>
					<trkpt lat="46.647490" lon="5.167880">
						<ele>183</ele>
						<time>2021-03-25T17:28:32Z</time>
					</trkpt>
					<trkpt lat="46.646730" lon="5.168790">
						<ele>182</ele>
						<time>2021-03-25T17:28:50Z</time>
					</trkpt>
					<trkpt lat="46.645960" lon="5.169480">
						<ele>178</ele>
						<time>2021-03-25T17:29:06Z</time>
					</trkpt>
					<trkpt lat="46.645440" lon="5.170080">
						<ele>178</ele>
						<time>2021-03-25T17:29:18Z</time>
					</trkpt>
					<trkpt lat="46.644800" lon="5.171050">
						<ele>180</ele>
						<time>2021-03-25T17:29:34Z</time>
					</trkpt>
					<trkpt lat="46.644510" lon="5.171860">
						<ele>181</ele>
						<time>2021-03-25T17:29:45Z</time>
					</trkpt>
					<trkpt lat="46.644380" lon="5.172260">
						<ele>182</ele>
						<time>2021-03-25T17:29:51Z</time>
					</trkpt>
					<trkpt lat="46.644220" lon="5.172850">
						<ele>183</ele>
						<time>2021-03-25T17:29:58Z</time>
					</trkpt>
					<trkpt lat="46.644050" lon="5.173550">
						<ele>184</ele>
						<time>2021-03-25T17:30:07Z</time>
					</trkpt>
					<trkpt lat="46.643960" lon="5.174010">
						<ele>186</ele>
						<time>2021-03-25T17:30:13Z</time>
					</trkpt>
					<trkpt lat="46.643910" lon="5.174460">
						<ele>187</ele>
						<time>2021-03-25T17:30:19Z</time>
					</trkpt>
					<trkpt lat="46.643860" lon="5.175050">
						<ele>188</ele>
						<time>2021-03-25T17:30:26Z</time>
					</trkpt>
					<trkpt lat="46.643880" lon="5.178810">
						<ele>187</ele>
						<time>2021-03-25T17:31:12Z</time>
					</trkpt>
					<trkpt lat="46.643870" lon="5.179510">
						<ele>187</ele>
						<time>2021-03-25T17:31:21Z</time>
					</trkpt>
					<trkpt lat="46.643850" lon="5.179580">
						<ele>187</ele>
						<time>2021-03-25T17:31:21Z</time>
					</trkpt>
					<trkpt lat="46.643860" lon="5.179630">
						<ele>187</ele>
						<time>2021-03-25T17:31:22Z</time>
					</trkpt>
					<trkpt lat="46.643820" lon="5.182330">
						<ele>186</ele>
						<time>2021-03-25T17:31:55Z</time>
					</trkpt>
					<trkpt lat="46.643760" lon="5.184180">
						<ele>187</ele>
						<time>2021-03-25T17:32:18Z</time>
					</trkpt>
					<trkpt lat="46.643700" lon="5.185090">
						<ele>186</ele>
						<time>2021-03-25T17:32:29Z</time>
					</trkpt>
					<trkpt lat="46.643690" lon="5.185740">
						<ele>185</ele>
						<time>2021-03-25T17:32:37Z</time>
					</trkpt>
					<trkpt lat="46.643650" lon="5.186330">
						<ele>185</ele>
						<time>2021-03-25T17:32:44Z</time>
					</trkpt>
					<trkpt lat="46.643630" lon="5.186420">
						<ele>184</ele>
						<time>2021-03-25T17:32:45Z</time>
					</trkpt>
					<trkpt lat="46.643370" lon="5.189000">
						<ele>181</ele>
						<time>2021-03-25T17:33:17Z</time>
					</trkpt>
					<trkpt lat="46.642860" lon="5.193290">
						<ele>181</ele>
						<time>2021-03-25T17:34:10Z</time>
					</trkpt>
					<trkpt lat="46.642720" lon="5.194210">
						<ele>180</ele>
						<time>2021-03-25T17:34:22Z</time>
					</trkpt>
					<trkpt lat="46.642260" lon="5.196410">
						<ele>180</ele>
						<time>2021-03-25T17:34:50Z</time>
					</trkpt>
					<trkpt lat="46.641870" lon="5.198210">
						<ele>180</ele>
						<time>2021-03-25T17:35:13Z</time>
					</trkpt>
					<trkpt lat="46.641220" lon="5.200770">
						<ele>179</ele>
						<time>2021-03-25T17:35:46Z</time>
					</trkpt>
					<trkpt lat="46.641130" lon="5.201120">
						<ele>179</ele>
						<time>2021-03-25T17:35:51Z</time>
					</trkpt>
					<trkpt lat="46.640780" lon="5.202060">
						<ele>179</ele>
						<time>2021-03-25T17:36:04Z</time>
					</trkpt>
					<trkpt lat="46.640500" lon="5.202630">
						<ele>180</ele>
						<time>2021-03-25T17:36:12Z</time>
					</trkpt>
					<trkpt lat="46.640330" lon="5.202910">
						<ele>180</ele>
						<time>2021-03-25T17:36:17Z</time>
					</trkpt>
					<trkpt lat="46.640370" lon="5.202980">
						<ele>180</ele>
						<time>2021-03-25T17:36:18Z</time>
					</trkpt>
					<trkpt lat="46.640250" lon="5.203190">
						<ele>180</ele>
						<time>2021-03-25T17:36:22Z</time>
					</trkpt>
					<trkpt lat="46.639580" lon="5.204210">
						<ele>179</ele>
						<time>2021-03-25T17:36:39Z</time>
					</trkpt>
					<trkpt lat="46.638730" lon="5.205570">
						<ele>179</ele>
						<time>2021-03-25T17:37:01Z</time>
					</trkpt>
					<trkpt lat="46.638680" lon="5.205650">
						<ele>179</ele>
						<time>2021-03-25T17:37:03Z</time>
					</trkpt>
					<trkpt lat="46.638440" lon="5.206120">
						<ele>179</ele>
						<time>2021-03-25T17:37:10Z</time>
					</trkpt>
					<trkpt lat="46.638330" lon="5.206390">
						<ele>179</ele>
						<time>2021-03-25T17:37:14Z</time>
					</trkpt>
					<trkpt lat="46.638180" lon="5.206780">
						<ele>179</ele>
						<time>2021-03-25T17:37:19Z</time>
					</trkpt>
					<trkpt lat="46.638150" lon="5.206910">
						<ele>179</ele>
						<time>2021-03-25T17:37:21Z</time>
					</trkpt>
					<trkpt lat="46.637850" lon="5.207710">
						<ele>180</ele>
						<time>2021-03-25T17:37:32Z</time>
					</trkpt>
					<trkpt lat="46.637670" lon="5.208100">
						<ele>179</ele>
						<time>2021-03-25T17:37:38Z</time>
					</trkpt>
					<trkpt lat="46.637640" lon="5.208130">
						<ele>179</ele>
						<time>2021-03-25T17:37:38Z</time>
					</trkpt>
					<trkpt lat="46.637590" lon="5.208100">
						<ele>179</ele>
						<time>2021-03-25T17:37:39Z</time>
					</trkpt>
					<trkpt lat="46.637280" lon="5.209000">
						<ele>179</ele>
						<time>2021-03-25T17:37:51Z</time>
					</trkpt>
					<trkpt lat="46.637000" lon="5.209710">
						<ele>180</ele>
						<time>2021-03-25T17:38:01Z</time>
					</trkpt>
					<trkpt lat="46.636740" lon="5.210480">
						<ele>181</ele>
						<time>2021-03-25T17:38:12Z</time>
					</trkpt>
					<trkpt lat="46.636550" lon="5.210920">
						<ele>181</ele>
						<time>2021-03-25T17:38:18Z</time>
					</trkpt>
					<trkpt lat="46.636000" lon="5.212050">
						<ele>180</ele>
						<time>2021-03-25T17:38:35Z</time>
					</trkpt>
					<trkpt lat="46.635670" lon="5.212460">
						<ele>179</ele>
						<time>2021-03-25T17:38:43Z</time>
					</trkpt>
					<trkpt lat="46.635590" lon="5.212400">
						<ele>179</ele>
						<time>2021-03-25T17:38:45Z</time>
					</trkpt>
					<trkpt lat="46.635400" lon="5.212240">
						<ele>178</ele>
						<time>2021-03-25T17:38:48Z</time>
					</trkpt>
					<trkpt lat="46.635330" lon="5.212260">
						<ele>178</ele>
						<time>2021-03-25T17:38:50Z</time>
					</trkpt>
					<trkpt lat="46.635090" lon="5.212650">
						<ele>178</ele>
						<time>2021-03-25T17:38:56Z</time>
					</trkpt>
					<trkpt lat="46.634920" lon="5.212880">
						<ele>178</ele>
						<time>2021-03-25T17:39:00Z</time>
					</trkpt>
					<trkpt lat="46.634720" lon="5.213090">
						<ele>178</ele>
						<time>2021-03-25T17:39:05Z</time>
					</trkpt>
					<trkpt lat="46.633990" lon="5.213550">
						<ele>178</ele>
						<time>2021-03-25T17:39:19Z</time>
					</trkpt>
					<trkpt lat="46.633790" lon="5.213750">
						<ele>179</ele>
						<time>2021-03-25T17:39:23Z</time>
					</trkpt>
					<trkpt lat="46.633740" lon="5.213850">
						<ele>179</ele>
						<time>2021-03-25T17:39:25Z</time>
					</trkpt>
					<trkpt lat="46.633660" lon="5.214220">
						<ele>179</ele>
						<time>2021-03-25T17:39:29Z</time>
					</trkpt>
					<trkpt lat="46.633570" lon="5.214350">
						<ele>179</ele>
						<time>2021-03-25T17:39:32Z</time>
					</trkpt>
					<trkpt lat="46.633440" lon="5.214480">
						<ele>179</ele>
						<time>2021-03-25T17:39:34Z</time>
					</trkpt>
					<trkpt lat="46.633080" lon="5.214850">
						<ele>180</ele>
						<time>2021-03-25T17:39:42Z</time>
					</trkpt>
					<trkpt lat="46.632940" lon="5.215100">
						<ele>181</ele>
						<time>2021-03-25T17:39:46Z</time>
					</trkpt>
					<trkpt lat="46.632870" lon="5.215260">
						<ele>181</ele>
						<time>2021-03-25T17:39:48Z</time>
					</trkpt>
					<trkpt lat="46.632720" lon="5.215660">
						<ele>182</ele>
						<time>2021-03-25T17:39:54Z</time>
					</trkpt>
					<trkpt lat="46.632550" lon="5.216210">
						<ele>182</ele>
						<time>2021-03-25T17:40:01Z</time>
					</trkpt>
					<trkpt lat="46.632490" lon="5.216350">
						<ele>183</ele>
						<time>2021-03-25T17:40:03Z</time>
					</trkpt>
					<trkpt lat="46.632400" lon="5.216510">
						<ele>182</ele>
						<time>2021-03-25T17:40:06Z</time>
					</trkpt>
					<trkpt lat="46.631880" lon="5.217060">
						<ele>180</ele>
						<time>2021-03-25T17:40:17Z</time>
					</trkpt>
					<trkpt lat="46.631670" lon="5.217290">
						<ele>179</ele>
						<time>2021-03-25T17:40:22Z</time>
					</trkpt>
					<trkpt lat="46.631480" lon="5.217510">
						<ele>179</ele>
						<time>2021-03-25T17:40:26Z</time>
					</trkpt>
					<trkpt lat="46.631390" lon="5.217620">
						<ele>179</ele>
						<time>2021-03-25T17:40:28Z</time>
					</trkpt>
					<trkpt lat="46.631330" lon="5.217700">
						<ele>180</ele>
						<time>2021-03-25T17:40:30Z</time>
					</trkpt>
					<trkpt lat="46.631260" lon="5.217770">
						<ele>180</ele>
						<time>2021-03-25T17:40:31Z</time>
					</trkpt>
					<trkpt lat="46.631040" lon="5.218010">
						<ele>180</ele>
						<time>2021-03-25T17:40:36Z</time>
					</trkpt>
					<trkpt lat="46.630960" lon="5.218100">
						<ele>180</ele>
						<time>2021-03-25T17:40:38Z</time>
					</trkpt>
					<trkpt lat="46.630430" lon="5.218710">
						<ele>178</ele>
						<time>2021-03-25T17:40:50Z</time>
					</trkpt>
					<trkpt lat="46.630230" lon="5.218930">
						<ele>178</ele>
						<time>2021-03-25T17:40:55Z</time>
					</trkpt>
					<trkpt lat="46.630130" lon="5.218990">
						<ele>177</ele>
						<time>2021-03-25T17:40:57Z</time>
					</trkpt>
					<trkpt lat="46.630080" lon="5.219020">
						<ele>177</ele>
						<time>2021-03-25T17:40:58Z</time>
					</trkpt>
					<trkpt lat="46.629670" lon="5.219470">
						<ele>178</ele>
						<time>2021-03-25T17:41:07Z</time>
					</trkpt>
					<trkpt lat="46.629620" lon="5.219580">
						<ele>178</ele>
						<time>2021-03-25T17:41:08Z</time>
					</trkpt>
					<trkpt lat="46.629580" lon="5.219670">
						<ele>178</ele>
						<time>2021-03-25T17:41:10Z</time>
					</trkpt>
					<trkpt lat="46.629540" lon="5.219750">
						<ele>179</ele>
						<time>2021-03-25T17:41:11Z</time>
					</trkpt>
					<trkpt lat="46.629550" lon="5.219780">
						<ele>179</ele>
						<time>2021-03-25T17:41:11Z</time>
					</trkpt>
					<trkpt lat="46.629540" lon="5.219830">
						<ele>179</ele>
						<time>2021-03-25T17:41:12Z</time>
					</trkpt>
					<trkpt lat="46.629510" lon="5.219910">
						<ele>179</ele>
						<time>2021-03-25T17:41:13Z</time>
					</trkpt>
					<trkpt lat="46.629490" lon="5.219940">
						<ele>179</ele>
						<time>2021-03-25T17:41:13Z</time>
					</trkpt>
					<trkpt lat="46.629480" lon="5.219940">
						<ele>179</ele>
						<time>2021-03-25T17:41:14Z</time>
					</trkpt>
					<trkpt lat="46.629460" lon="5.219960">
						<ele>179</ele>
						<time>2021-03-25T17:41:14Z</time>
					</trkpt>
					<trkpt lat="46.629440" lon="5.219960">
						<ele>179</ele>
						<time>2021-03-25T17:41:14Z</time>
					</trkpt>
					<trkpt lat="46.629440" lon="5.220170">
						<ele>180</ele>
						<time>2021-03-25T17:41:17Z</time>
					</trkpt>
					<trkpt lat="46.629340" lon="5.220500">
						<ele>182</ele>
						<time>2021-03-25T17:41:21Z</time>
					</trkpt>
					<trkpt lat="46.629240" lon="5.220800">
						<ele>183</ele>
						<time>2021-03-25T17:41:25Z</time>
					</trkpt>
					<trkpt lat="46.629210" lon="5.221000">
						<ele>184</ele>
						<time>2021-03-25T17:41:28Z</time>
					</trkpt>
					<trkpt lat="46.629250" lon="5.221890">
						<ele>185</ele>
						<time>2021-03-25T17:41:39Z</time>
					</trkpt>
					<trkpt lat="46.629240" lon="5.222490">
						<ele>186</ele>
						<time>2021-03-25T17:41:46Z</time>
					</trkpt>
					<trkpt lat="46.629310" lon="5.223210">
						<ele>186</ele>
						<time>2021-03-25T17:41:55Z</time>
					</trkpt>
					<trkpt lat="46.629650" lon="5.225140">
						<ele>181</ele>
						<time>2021-03-25T17:42:19Z</time>
					</trkpt>
					<trkpt lat="46.629710" lon="5.225330">
						<ele>181</ele>
						<time>2021-03-25T17:42:22Z</time>
					</trkpt>
					<trkpt lat="46.629950" lon="5.226020">
						<ele>180</ele>
						<time>2021-03-25T17:42:31Z</time>
					</trkpt>
					<trkpt lat="46.629990" lon="5.226310">
						<ele>181</ele>
						<time>2021-03-25T17:42:35Z</time>
					</trkpt>
					</trkseg>
				</trk>
			</gpx>